<?xml version='1.0' encoding='UTF-8'?>
<gpx version="1.1" creator="https://www.komoot.de" xmlns="http://www.topografix.com/GPX/1/1" xmlns:xsi="http://www.w3.org/2001/XMLSchema-instance" xsi:schemaLocation="http://www.topografix.com/GPX/1/1 http://www.topografix.com/GPX/1/1/gpx.xsd">
  <metadata>
    <name>Via Alpina</name>
    <author>
      <link href="https://www.komoot.de">
        <text>komoot</text>
        <type>text/html</type>
      </link>
    </author>
  </metadata>
  <trk>
    <name>Via Alpina</name>
    <trkseg>
      <trkpt lat="45.684459" lon="7.654605">
        <ele>558.022041</ele>
        <time>2022-11-14T10:41:50.720Z</time>
      </trkpt>
      <trkpt lat="45.684438" lon="7.654660">
        <ele>558.022041</ele>
        <time>2022-11-14T10:41:55.904Z</time>
      </trkpt>
      <trkpt lat="45.684116" lon="7.654459">
        <ele>558.022041</ele>
        <time>2022-11-14T10:42:52.543Z</time>
      </trkpt>
      <trkpt lat="45.683886" lon="7.653812">
        <ele>558.065488</ele>
        <time>2022-11-14T10:44:20.918Z</time>
      </trkpt>
      <trkpt lat="45.683735" lon="7.653549">
        <ele>561.617678</ele>
        <time>2022-11-14T10:45:03.409Z</time>
      </trkpt>
      <trkpt lat="45.683634" lon="7.653079">
        <ele>566.748779</ele>
        <time>2022-11-14T10:45:54.489Z</time>
      </trkpt>
      <trkpt lat="45.683524" lon="7.652811">
        <ele>569.992219</ele>
        <time>2022-11-14T10:46:23.721Z</time>
      </trkpt>
      <trkpt lat="45.683180" lon="7.652179">
        <ele>578.352307</ele>
        <time>2022-11-14T10:48:06.178Z</time>
      </trkpt>
      <trkpt lat="45.683064" lon="7.652177">
        <ele>580.085037</ele>
        <time>2022-11-14T10:48:22.707Z</time>
      </trkpt>
      <trkpt lat="45.682851" lon="7.652447">
        <ele>584.334656</ele>
        <time>2022-11-14T10:49:45.412Z</time>
      </trkpt>
      <trkpt lat="45.682807" lon="7.652372">
        <ele>585.362287</ele>
        <time>2022-11-14T10:49:55.126Z</time>
      </trkpt>
      <trkpt lat="45.682738" lon="7.652410">
        <ele>586.479880</ele>
        <time>2022-11-14T10:50:06.505Z</time>
      </trkpt>
      <trkpt lat="45.682576" lon="7.652688">
        <ele>590.303101</ele>
        <time>2022-11-14T10:51:05.241Z</time>
      </trkpt>
      <trkpt lat="45.682476" lon="7.652756">
        <ele>591.976687</ele>
        <time>2022-11-14T10:51:21.429Z</time>
      </trkpt>
      <trkpt lat="45.682381" lon="7.652688">
        <ele>593.582330</ele>
        <time>2022-11-14T10:51:56.875Z</time>
      </trkpt>
      <trkpt lat="45.682259" lon="7.652345">
        <ele>597.647224</ele>
        <time>2022-11-14T10:52:37.157Z</time>
      </trkpt>
      <trkpt lat="45.682186" lon="7.652319">
        <ele>598.784394</ele>
        <time>2022-11-14T10:52:58.941Z</time>
      </trkpt>
      <trkpt lat="45.681893" lon="7.651605">
        <ele>607.529630</ele>
        <time>2022-11-14T10:54:10.400Z</time>
      </trkpt>
      <trkpt lat="45.681815" lon="7.651029">
        <ele>615.118401</ele>
        <time>2022-11-14T10:55:09.239Z</time>
      </trkpt>
      <trkpt lat="45.681295" lon="7.650386">
        <ele>634.274372</ele>
        <time>2022-11-14T10:58:32.753Z</time>
      </trkpt>
      <trkpt lat="45.681234" lon="7.649709">
        <ele>647.568748</ele>
        <time>2022-11-14T11:00:25.736Z</time>
      </trkpt>
      <trkpt lat="45.681112" lon="7.649231">
        <ele>657.480000</ele>
        <time>2022-11-14T11:01:53.650Z</time>
      </trkpt>
      <trkpt lat="45.681045" lon="7.649192">
        <ele>659.496266</ele>
        <time>2022-11-14T11:02:06.868Z</time>
      </trkpt>
      <trkpt lat="45.680908" lon="7.649117">
        <ele>663.606951</ele>
        <time>2022-11-14T11:03:11.769Z</time>
      </trkpt>
      <trkpt lat="45.680853" lon="7.649008">
        <ele>666.267312</ele>
        <time>2022-11-14T11:03:29.230Z</time>
      </trkpt>
      <trkpt lat="45.680816" lon="7.648846">
        <ele>669.639605</ele>
        <time>2022-11-14T11:03:53.601Z</time>
      </trkpt>
      <trkpt lat="45.680858" lon="7.648474">
        <ele>677.095559</ele>
        <time>2022-11-14T11:05:23.412Z</time>
      </trkpt>
      <trkpt lat="45.680829" lon="7.648425">
        <ele>678.366187</ele>
        <time>2022-11-14T11:05:31.777Z</time>
      </trkpt>
      <trkpt lat="45.680517" lon="7.648873">
        <ele>690.882145</ele>
        <time>2022-11-14T11:07:56.173Z</time>
      </trkpt>
      <trkpt lat="45.680404" lon="7.648974">
        <ele>694.655076</ele>
        <time>2022-11-14T11:08:54.923Z</time>
      </trkpt>
      <trkpt lat="45.680285" lon="7.648974">
        <ele>698.025207</ele>
        <time>2022-11-14T11:09:23.095Z</time>
      </trkpt>
      <trkpt lat="45.680335" lon="7.648316">
        <ele>711.121425</ele>
        <time>2022-11-14T11:11:42.699Z</time>
      </trkpt>
      <trkpt lat="45.680309" lon="7.647869">
        <ele>719.737577</ele>
        <time>2022-11-14T11:12:52.386Z</time>
      </trkpt>
      <trkpt lat="45.679842" lon="7.648222">
        <ele>734.128162</ele>
        <time>2022-11-14T11:15:14.471Z</time>
      </trkpt>
      <trkpt lat="45.679821" lon="7.647884">
        <ele>740.588278</ele>
        <time>2022-11-14T11:16:28.997Z</time>
      </trkpt>
      <trkpt lat="45.679763" lon="7.647880">
        <ele>742.170525</ele>
        <time>2022-11-14T11:16:45.046Z</time>
      </trkpt>
      <trkpt lat="45.679419" lon="7.648173">
        <ele>753.078181</ele>
        <time>2022-11-14T11:18:49.230Z</time>
      </trkpt>
      <trkpt lat="45.679096" lon="7.648200">
        <ele>761.894449</ele>
        <time>2022-11-14T11:20:36.170Z</time>
      </trkpt>
      <trkpt lat="45.679038" lon="7.648117">
        <ele>764.734651</ele>
        <time>2022-11-14T11:21:05.239Z</time>
      </trkpt>
      <trkpt lat="45.678996" lon="7.647865">
        <ele>771.186884</ele>
        <time>2022-11-14T11:22:08.060Z</time>
      </trkpt>
      <trkpt lat="45.678691" lon="7.647854">
        <ele>782.062472</ele>
        <time>2022-11-14T11:23:55.877Z</time>
      </trkpt>
      <trkpt lat="45.678549" lon="7.647790">
        <ele>787.369290</ele>
        <time>2022-11-14T11:24:45.160Z</time>
      </trkpt>
      <trkpt lat="45.678510" lon="7.647681">
        <ele>790.419253</ele>
        <time>2022-11-14T11:25:15.559Z</time>
      </trkpt>
      <trkpt lat="45.678539" lon="7.647591">
        <ele>792.887640</ele>
        <time>2022-11-14T11:25:39.699Z</time>
      </trkpt>
      <trkpt lat="45.678615" lon="7.647587">
        <ele>795.598594</ele>
        <time>2022-11-14T11:26:04.371Z</time>
      </trkpt>
      <trkpt lat="45.678623" lon="7.647482">
        <ele>798.229172</ele>
        <time>2022-11-14T11:26:30.224Z</time>
      </trkpt>
      <trkpt lat="45.678478" lon="7.647267">
        <ele>805.671504</ele>
        <time>2022-11-14T11:27:47.966Z</time>
      </trkpt>
      <trkpt lat="45.678284" lon="7.646719">
        <ele>820.971752</ele>
        <time>2022-11-14T11:30:38.134Z</time>
      </trkpt>
      <trkpt lat="45.677937" lon="7.646797">
        <ele>832.404105</ele>
        <time>2022-11-14T11:32:48.941Z</time>
      </trkpt>
      <trkpt lat="45.677670" lon="7.647136">
        <ele>843.206705</ele>
        <time>2022-11-14T11:34:55.672Z</time>
      </trkpt>
      <trkpt lat="45.677385" lon="7.647222">
        <ele>852.022254</ele>
        <time>2022-11-14T11:36:37.076Z</time>
      </trkpt>
      <trkpt lat="45.677581" lon="7.646729">
        <ele>864.017323</ele>
        <time>2022-11-14T11:38:19.738Z</time>
      </trkpt>
      <trkpt lat="45.677924" lon="7.646081">
        <ele>881.040682</ele>
        <time>2022-11-14T11:40:18.132Z</time>
      </trkpt>
      <trkpt lat="45.677909" lon="7.645973">
        <ele>882.570314</ele>
        <time>2022-11-14T11:40:33.637Z</time>
      </trkpt>
      <trkpt lat="45.677822" lon="7.645969">
        <ele>884.300951</ele>
        <time>2022-11-14T11:40:51.537Z</time>
      </trkpt>
      <trkpt lat="45.677568" lon="7.646375">
        <ele>891.871431</ele>
        <time>2022-11-14T11:42:00.752Z</time>
      </trkpt>
      <trkpt lat="45.677075" lon="7.646821">
        <ele>903.467253</ele>
        <time>2022-11-14T11:43:51.509Z</time>
      </trkpt>
      <trkpt lat="45.677021" lon="7.646835">
        <ele>904.558361</ele>
        <time>2022-11-14T11:44:01.543Z</time>
      </trkpt>
      <trkpt lat="45.676961" lon="7.646757">
        <ele>906.169931</ele>
        <time>2022-11-14T11:44:16.097Z</time>
      </trkpt>
      <trkpt lat="45.677074" lon="7.646644">
        <ele>908.910682</ele>
        <time>2022-11-14T11:44:41.613Z</time>
      </trkpt>
      <trkpt lat="45.677136" lon="7.646582">
        <ele>910.414456</ele>
        <time>2022-11-14T11:44:57.773Z</time>
      </trkpt>
      <trkpt lat="45.677360" lon="7.646066">
        <ele>919.265321</ele>
        <time>2022-11-14T11:46:21.365Z</time>
      </trkpt>
      <trkpt lat="45.677457" lon="7.645842">
        <ele>923.561430</ele>
        <time>2022-11-14T11:46:56.564Z</time>
      </trkpt>
      <trkpt lat="45.677576" lon="7.645240">
        <ele>933.760400</ele>
        <time>2022-11-14T11:48:32.343Z</time>
      </trkpt>
      <trkpt lat="45.677604" lon="7.644691">
        <ele>942.733965</ele>
        <time>2022-11-14T11:49:57.291Z</time>
      </trkpt>
      <trkpt lat="45.677502" lon="7.644611">
        <ele>945.447735</ele>
        <time>2022-11-14T11:50:25.399Z</time>
      </trkpt>
      <trkpt lat="45.677442" lon="7.644800">
        <ele>948.831926</ele>
        <time>2022-11-14T11:50:53.713Z</time>
      </trkpt>
      <trkpt lat="45.677188" lon="7.644310">
        <ele>958.704448</ele>
        <time>2022-11-14T11:53:04.016Z</time>
      </trkpt>
      <trkpt lat="45.677037" lon="7.644222">
        <ele>961.665436</ele>
        <time>2022-11-14T11:53:55.674Z</time>
      </trkpt>
      <trkpt lat="45.677032" lon="7.644108">
        <ele>963.114868</ele>
        <time>2022-11-14T11:54:10.295Z</time>
      </trkpt>
      <trkpt lat="45.677111" lon="7.643979">
        <ele>965.291564</ele>
        <time>2022-11-14T11:54:37.497Z</time>
      </trkpt>
      <trkpt lat="45.677529" lon="7.643813">
        <ele>973.169807</ele>
        <time>2022-11-14T11:55:50.807Z</time>
      </trkpt>
      <trkpt lat="45.677670" lon="7.643430">
        <ele>978.663139</ele>
        <time>2022-11-14T11:56:41.741Z</time>
      </trkpt>
      <trkpt lat="45.677685" lon="7.643234">
        <ele>981.165097</ele>
        <time>2022-11-14T11:57:08.421Z</time>
      </trkpt>
      <trkpt lat="45.677742" lon="7.643120">
        <ele>982.943912</ele>
        <time>2022-11-14T11:57:20.147Z</time>
      </trkpt>
      <trkpt lat="45.678019" lon="7.642885">
        <ele>988.791969</ele>
        <time>2022-11-14T11:58:13.809Z</time>
      </trkpt>
      <trkpt lat="45.677932" lon="7.642794">
        <ele>990.748972</ele>
        <time>2022-11-14T11:58:33.710Z</time>
      </trkpt>
      <trkpt lat="45.677854" lon="7.642695">
        <ele>992.764726</ele>
        <time>2022-11-14T11:58:47.913Z</time>
      </trkpt>
      <trkpt lat="45.677793" lon="7.642596">
        <ele>994.573536</ele>
        <time>2022-11-14T11:59:02.589Z</time>
      </trkpt>
      <trkpt lat="45.677876" lon="7.642529">
        <ele>996.442469</ele>
        <time>2022-11-14T11:59:16.812Z</time>
      </trkpt>
      <trkpt lat="45.678060" lon="7.642098">
        <ele>1003.363861</ele>
        <time>2022-11-14T12:00:19.842Z</time>
      </trkpt>
      <trkpt lat="45.678041" lon="7.642005">
        <ele>1004.691633</ele>
        <time>2022-11-14T12:00:37.459Z</time>
      </trkpt>
      <trkpt lat="45.678220" lon="7.641369">
        <ele>1014.087452</ele>
        <time>2022-11-14T12:02:11.840Z</time>
      </trkpt>
      <trkpt lat="45.678236" lon="7.640879">
        <ele>1020.809382</ele>
        <time>2022-11-14T12:03:24.202Z</time>
      </trkpt>
      <trkpt lat="45.678406" lon="7.640385">
        <ele>1028.782374</ele>
        <time>2022-11-14T12:04:43.718Z</time>
      </trkpt>
      <trkpt lat="45.678378" lon="7.639654">
        <ele>1040.991511</ele>
        <time>2022-11-14T12:06:33.197Z</time>
      </trkpt>
      <trkpt lat="45.678475" lon="7.639236">
        <ele>1048.336900</ele>
        <time>2022-11-14T12:07:38.163Z</time>
      </trkpt>
      <trkpt lat="45.678463" lon="7.639039">
        <ele>1051.634711</ele>
        <time>2022-11-14T12:08:09.120Z</time>
      </trkpt>
      <trkpt lat="45.678264" lon="7.638476">
        <ele>1062.156940</ele>
        <time>2022-11-14T12:09:48.600Z</time>
      </trkpt>
      <trkpt lat="45.678276" lon="7.638075">
        <ele>1068.850532</ele>
        <time>2022-11-14T12:10:55.372Z</time>
      </trkpt>
      <trkpt lat="45.678147" lon="7.636589">
        <ele>1095.287984</ele>
        <time>2022-11-14T12:14:55.336Z</time>
      </trkpt>
      <trkpt lat="45.677960" lon="7.636020">
        <ele>1106.401484</ele>
        <time>2022-11-14T12:16:39.752Z</time>
      </trkpt>
      <trkpt lat="45.677972" lon="7.635777">
        <ele>1110.706995</ele>
        <time>2022-11-14T12:17:16.848Z</time>
      </trkpt>
      <trkpt lat="45.678050" lon="7.635595">
        <ele>1114.480597</ele>
        <time>2022-11-14T12:17:50.206Z</time>
      </trkpt>
      <trkpt lat="45.678090" lon="7.635109">
        <ele>1120.546119</ele>
        <time>2022-11-14T12:19:01.842Z</time>
      </trkpt>
      <trkpt lat="45.678055" lon="7.634842">
        <ele>1123.855083</ele>
        <time>2022-11-14T12:19:45.242Z</time>
      </trkpt>
      <trkpt lat="45.677969" lon="7.634676">
        <ele>1126.372274</ele>
        <time>2022-11-14T12:20:15.870Z</time>
      </trkpt>
      <trkpt lat="45.677870" lon="7.634534">
        <ele>1128.815729</ele>
        <time>2022-11-14T12:20:44.409Z</time>
      </trkpt>
      <trkpt lat="45.677154" lon="7.633513">
        <ele>1146.305508</ele>
        <time>2022-11-14T12:23:17.800Z</time>
      </trkpt>
      <trkpt lat="45.677070" lon="7.633067">
        <ele>1149.123672</ele>
        <time>2022-11-14T12:24:03.061Z</time>
      </trkpt>
      <trkpt lat="45.677128" lon="7.632950">
        <ele>1149.998899</ele>
        <time>2022-11-14T12:24:16.759Z</time>
      </trkpt>
      <trkpt lat="45.677195" lon="7.632833">
        <ele>1150.921829</ele>
        <time>2022-11-14T12:24:28.172Z</time>
      </trkpt>
      <trkpt lat="45.677805" lon="7.632771">
        <ele>1156.261699</ele>
        <time>2022-11-14T12:25:46.377Z</time>
      </trkpt>
      <trkpt lat="45.677985" lon="7.632682">
        <ele>1157.924587</ele>
        <time>2022-11-14T12:26:10.336Z</time>
      </trkpt>
      <trkpt lat="45.678030" lon="7.631729">
        <ele>1164.398845</ele>
        <time>2022-11-14T12:27:30.666Z</time>
      </trkpt>
      <trkpt lat="45.677981" lon="7.631701">
        <ele>1165.018743</ele>
        <time>2022-11-14T12:27:38.091Z</time>
      </trkpt>
      <trkpt lat="45.677749" lon="7.631812">
        <ele>1167.892824</ele>
        <time>2022-11-14T12:28:10.647Z</time>
      </trkpt>
      <trkpt lat="45.677737" lon="7.631603">
        <ele>1169.614305</ele>
        <time>2022-11-14T12:28:32.681Z</time>
      </trkpt>
      <trkpt lat="45.678013" lon="7.630251">
        <ele>1181.176982</ele>
        <time>2022-11-14T12:31:06.825Z</time>
      </trkpt>
      <trkpt lat="45.678284" lon="7.628463">
        <ele>1197.446410</ele>
        <time>2022-11-14T12:34:15.706Z</time>
      </trkpt>
      <trkpt lat="45.678345" lon="7.628225">
        <ele>1199.724825</ele>
        <time>2022-11-14T12:34:41.823Z</time>
      </trkpt>
      <trkpt lat="45.678581" lon="7.627726">
        <ele>1205.140461</ele>
        <time>2022-11-14T12:35:46.136Z</time>
      </trkpt>
      <trkpt lat="45.679124" lon="7.627018">
        <ele>1213.273411</ele>
        <time>2022-11-14T12:37:33.885Z</time>
      </trkpt>
      <trkpt lat="45.679169" lon="7.626789">
        <ele>1215.078074</ele>
        <time>2022-11-14T12:37:56.851Z</time>
      </trkpt>
      <trkpt lat="45.679130" lon="7.626118">
        <ele>1220.186051</ele>
        <time>2022-11-14T12:38:58.094Z</time>
      </trkpt>
      <trkpt lat="45.679262" lon="7.625673">
        <ele>1223.853598</ele>
        <time>2022-11-14T12:39:42.325Z</time>
      </trkpt>
      <trkpt lat="45.679412" lon="7.625208">
        <ele>1228.074618</ele>
        <time>2022-11-14T12:40:42.181Z</time>
      </trkpt>
      <trkpt lat="45.679499" lon="7.624538">
        <ele>1234.086678</ele>
        <time>2022-11-14T12:42:03.244Z</time>
      </trkpt>
      <trkpt lat="45.679777" lon="7.624535">
        <ele>1237.597092</ele>
        <time>2022-11-14T12:42:54.447Z</time>
      </trkpt>
      <trkpt lat="45.679878" lon="7.624435">
        <ele>1239.147821</ele>
        <time>2022-11-14T12:43:15.669Z</time>
      </trkpt>
      <trkpt lat="45.679847" lon="7.623884">
        <ele>1244.024526</ele>
        <time>2022-11-14T12:44:32.957Z</time>
      </trkpt>
      <trkpt lat="45.679583" lon="7.623019">
        <ele>1252.468463</ele>
        <time>2022-11-14T12:46:47.191Z</time>
      </trkpt>
      <trkpt lat="45.679510" lon="7.622121">
        <ele>1260.678713</ele>
        <time>2022-11-14T12:49:06.528Z</time>
      </trkpt>
      <trkpt lat="45.679391" lon="7.622024">
        <ele>1262.458769</ele>
        <time>2022-11-14T12:49:38.863Z</time>
      </trkpt>
      <trkpt lat="45.679083" lon="7.620805">
        <ele>1271.479717</ele>
        <time>2022-11-14T12:52:07.944Z</time>
      </trkpt>
      <trkpt lat="45.679008" lon="7.619780">
        <ele>1270.375037</ele>
        <time>2022-11-14T12:53:45.800Z</time>
      </trkpt>
      <trkpt lat="45.678965" lon="7.619639">
        <ele>1270.210133</ele>
        <time>2022-11-14T12:54:03.243Z</time>
      </trkpt>
      <trkpt lat="45.679035" lon="7.619648">
        <ele>1270.102310</ele>
        <time>2022-11-14T12:54:22.905Z</time>
      </trkpt>
      <trkpt lat="45.679129" lon="7.619537">
        <ele>1269.915355</ele>
        <time>2022-11-14T12:54:40.359Z</time>
      </trkpt>
      <trkpt lat="45.679060" lon="7.618954">
        <ele>1269.281550</ele>
        <time>2022-11-14T12:55:36.701Z</time>
      </trkpt>
      <trkpt lat="45.679314" lon="7.618892">
        <ele>1267.886542</ele>
        <time>2022-11-14T12:56:18.543Z</time>
      </trkpt>
      <trkpt lat="45.679372" lon="7.618816">
        <ele>1266.797325</ele>
        <time>2022-11-14T12:56:29.046Z</time>
      </trkpt>
      <trkpt lat="45.679254" lon="7.618690">
        <ele>1264.758107</ele>
        <time>2022-11-14T12:56:48.954Z</time>
      </trkpt>
      <trkpt lat="45.679240" lon="7.618584">
        <ele>1263.714105</ele>
        <time>2022-11-14T12:57:11.647Z</time>
      </trkpt>
      <trkpt lat="45.679645" lon="7.618557">
        <ele>1258.098172</ele>
        <time>2022-11-14T12:58:18.527Z</time>
      </trkpt>
      <trkpt lat="45.679803" lon="7.618644">
        <ele>1255.753271</ele>
        <time>2022-11-14T12:58:43.491Z</time>
      </trkpt>
      <trkpt lat="45.679858" lon="7.618598">
        <ele>1254.870909</ele>
        <time>2022-11-14T12:58:52.900Z</time>
      </trkpt>
      <trkpt lat="45.679886" lon="7.618361">
        <ele>1252.544764</ele>
        <time>2022-11-14T12:59:19.934Z</time>
      </trkpt>
      <trkpt lat="45.680027" lon="7.618542">
        <ele>1249.921279</ele>
        <time>2022-11-14T12:59:48.670Z</time>
      </trkpt>
      <trkpt lat="45.680070" lon="7.618507">
        <ele>1249.236091</ele>
        <time>2022-11-14T12:59:56.320Z</time>
      </trkpt>
      <trkpt lat="45.680055" lon="7.618370">
        <ele>1247.894087</ele>
        <time>2022-11-14T13:00:14.441Z</time>
      </trkpt>
      <trkpt lat="45.680237" lon="7.618486">
        <ele>1245.134467</ele>
        <time>2022-11-14T13:00:45.420Z</time>
      </trkpt>
      <trkpt lat="45.680249" lon="7.618196">
        <ele>1241.155966</ele>
        <time>2022-11-14T13:01:18.617Z</time>
      </trkpt>
      <trkpt lat="45.680451" lon="7.617854">
        <ele>1233.970477</ele>
        <time>2022-11-14T13:02:10.247Z</time>
      </trkpt>
      <trkpt lat="45.680718" lon="7.616990">
        <ele>1218.812187</ele>
        <time>2022-11-14T13:04:11.128Z</time>
      </trkpt>
      <trkpt lat="45.680720" lon="7.616773">
        <ele>1215.330161</ele>
        <time>2022-11-14T13:04:47.860Z</time>
      </trkpt>
      <trkpt lat="45.680804" lon="7.616862">
        <ele>1212.930057</ele>
        <time>2022-11-14T13:05:13.603Z</time>
      </trkpt>
      <trkpt lat="45.680799" lon="7.616963">
        <ele>1211.305470</ele>
        <time>2022-11-14T13:05:29.362Z</time>
      </trkpt>
      <trkpt lat="45.681158" lon="7.617332">
        <ele>1201.132212</ele>
        <time>2022-11-14T13:07:12.971Z</time>
      </trkpt>
      <trkpt lat="45.681442" lon="7.617919">
        <ele>1189.513942</ele>
        <time>2022-11-14T13:09:01.624Z</time>
      </trkpt>
      <trkpt lat="45.681929" lon="7.618192">
        <ele>1177.332630</ele>
        <time>2022-11-14T13:10:49.157Z</time>
      </trkpt>
      <trkpt lat="45.682051" lon="7.618196">
        <ele>1174.490448</ele>
        <time>2022-11-14T13:11:10.466Z</time>
      </trkpt>
      <trkpt lat="45.682125" lon="7.618275">
        <ele>1172.340370</ele>
        <time>2022-11-14T13:11:28.858Z</time>
      </trkpt>
      <trkpt lat="45.682188" lon="7.618942">
        <ele>1161.388470</ele>
        <time>2022-11-14T13:12:59.392Z</time>
      </trkpt>
      <trkpt lat="45.682236" lon="7.619068">
        <ele>1160.892443</ele>
        <time>2022-11-14T13:13:14.661Z</time>
      </trkpt>
      <trkpt lat="45.682447" lon="7.619244">
        <ele>1160.871105</ele>
        <time>2022-11-14T13:13:52.688Z</time>
      </trkpt>
      <trkpt lat="45.682515" lon="7.619388">
        <ele>1160.860495</ele>
        <time>2022-11-14T13:14:09.511Z</time>
      </trkpt>
      <trkpt lat="45.682493" lon="7.619594">
        <ele>1160.847774</ele>
        <time>2022-11-14T13:14:31.471Z</time>
      </trkpt>
      <trkpt lat="45.682536" lon="7.619632">
        <ele>1160.843359</ele>
        <time>2022-11-14T13:14:37.812Z</time>
      </trkpt>
      <trkpt lat="45.682610" lon="7.619354">
        <ele>1160.825199</ele>
        <time>2022-11-14T13:15:05.476Z</time>
      </trkpt>
      <trkpt lat="45.682849" lon="7.618845">
        <ele>1160.787763</ele>
        <time>2022-11-14T13:16:10.161Z</time>
      </trkpt>
      <trkpt lat="45.683161" lon="7.618660">
        <ele>1160.758255</ele>
        <time>2022-11-14T13:17:04.781Z</time>
      </trkpt>
      <trkpt lat="45.683308" lon="7.618457">
        <ele>1161.056727</ele>
        <time>2022-11-14T13:17:43.665Z</time>
      </trkpt>
      <trkpt lat="45.683400" lon="7.618067">
        <ele>1165.435474</ele>
        <time>2022-11-14T13:18:21.823Z</time>
      </trkpt>
      <trkpt lat="45.683323" lon="7.617942">
        <ele>1167.208230</ele>
        <time>2022-11-14T13:18:40.379Z</time>
      </trkpt>
      <trkpt lat="45.683101" lon="7.617800">
        <ele>1170.910640</ele>
        <time>2022-11-14T13:19:17.052Z</time>
      </trkpt>
      <trkpt lat="45.683070" lon="7.617691">
        <ele>1172.162529</ele>
        <time>2022-11-14T13:19:33.564Z</time>
      </trkpt>
      <trkpt lat="45.682851" lon="7.617701">
        <ele>1175.498804</ele>
        <time>2022-11-14T13:20:05.818Z</time>
      </trkpt>
      <trkpt lat="45.682788" lon="7.617643">
        <ele>1176.639352</ele>
        <time>2022-11-14T13:20:23.538Z</time>
      </trkpt>
      <trkpt lat="45.682847" lon="7.617136">
        <ele>1182.106926</ele>
        <time>2022-11-14T13:21:36.717Z</time>
      </trkpt>
      <trkpt lat="45.682717" lon="7.616847">
        <ele>1185.763329</ele>
        <time>2022-11-14T13:22:15.889Z</time>
      </trkpt>
      <trkpt lat="45.682780" lon="7.616521">
        <ele>1189.696958</ele>
        <time>2022-11-14T13:22:54.315Z</time>
      </trkpt>
      <trkpt lat="45.682856" lon="7.616359">
        <ele>1192.337907</ele>
        <time>2022-11-14T13:23:13.896Z</time>
      </trkpt>
      <trkpt lat="45.683259" lon="7.615728">
        <ele>1203.908440</ele>
        <time>2022-11-14T13:25:06.996Z</time>
      </trkpt>
      <trkpt lat="45.683344" lon="7.615481">
        <ele>1207.634828</ele>
        <time>2022-11-14T13:25:47.191Z</time>
      </trkpt>
      <trkpt lat="45.683349" lon="7.615189">
        <ele>1211.587873</ele>
        <time>2022-11-14T13:26:29.603Z</time>
      </trkpt>
      <trkpt lat="45.683683" lon="7.614750">
        <ele>1220.372143</ele>
        <time>2022-11-14T13:28:02.884Z</time>
      </trkpt>
      <trkpt lat="45.683844" lon="7.614348">
        <ele>1226.077771</ele>
        <time>2022-11-14T13:29:02.889Z</time>
      </trkpt>
      <trkpt lat="45.684009" lon="7.614122">
        <ele>1229.820266</ele>
        <time>2022-11-14T13:29:49.886Z</time>
      </trkpt>
      <trkpt lat="45.683979" lon="7.613966">
        <ele>1231.672701</ele>
        <time>2022-11-14T13:30:09.663Z</time>
      </trkpt>
      <trkpt lat="45.683943" lon="7.613834">
        <ele>1233.295010</ele>
        <time>2022-11-14T13:30:28.754Z</time>
      </trkpt>
      <trkpt lat="45.683920" lon="7.613759">
        <ele>1234.232752</ele>
        <time>2022-11-14T13:30:37.959Z</time>
      </trkpt>
      <trkpt lat="45.683892" lon="7.613623">
        <ele>1235.855989</ele>
        <time>2022-11-14T13:30:57.179Z</time>
      </trkpt>
      <trkpt lat="45.683855" lon="7.613494">
        <ele>1237.452506</ele>
        <time>2022-11-14T13:31:10.701Z</time>
      </trkpt>
      <trkpt lat="45.683830" lon="7.613420">
        <ele>1238.393577</ele>
        <time>2022-11-14T13:31:18.733Z</time>
      </trkpt>
      <trkpt lat="45.683673" lon="7.612956">
        <ele>1244.296088</ele>
        <time>2022-11-14T13:32:16.211Z</time>
      </trkpt>
      <trkpt lat="45.683608" lon="7.612791">
        <ele>1246.464772</ele>
        <time>2022-11-14T13:32:36.209Z</time>
      </trkpt>
      <trkpt lat="45.683591" lon="7.612749">
        <ele>1247.020498</ele>
        <time>2022-11-14T13:32:43.867Z</time>
      </trkpt>
      <trkpt lat="45.683391" lon="7.612363">
        <ele>1252.503840</ele>
        <time>2022-11-14T13:33:40.302Z</time>
      </trkpt>
      <trkpt lat="45.683304" lon="7.612268">
        <ele>1253.846382</ele>
        <time>2022-11-14T13:34:04.014Z</time>
      </trkpt>
      <trkpt lat="45.683297" lon="7.612025">
        <ele>1255.931014</ele>
        <time>2022-11-14T13:34:25.331Z</time>
      </trkpt>
      <trkpt lat="45.683392" lon="7.611625">
        <ele>1259.552293</ele>
        <time>2022-11-14T13:35:05.316Z</time>
      </trkpt>
      <trkpt lat="45.683542" lon="7.611316">
        <ele>1262.777480</ele>
        <time>2022-11-14T13:35:41.297Z</time>
      </trkpt>
      <trkpt lat="45.683560" lon="7.611184">
        <ele>1263.930257</ele>
        <time>2022-11-14T13:35:54.051Z</time>
      </trkpt>
      <trkpt lat="45.683495" lon="7.611038">
        <ele>1265.414189</ele>
        <time>2022-11-14T13:36:09.735Z</time>
      </trkpt>
      <trkpt lat="45.683326" lon="7.610997">
        <ele>1267.517229</ele>
        <time>2022-11-14T13:36:38.756Z</time>
      </trkpt>
      <trkpt lat="45.683472" lon="7.610860">
        <ele>1269.659105</ele>
        <time>2022-11-14T13:37:02.326Z</time>
      </trkpt>
      <trkpt lat="45.683321" lon="7.610793">
        <ele>1271.598699</ele>
        <time>2022-11-14T13:37:29.806Z</time>
      </trkpt>
      <trkpt lat="45.683198" lon="7.610628">
        <ele>1273.666929</ele>
        <time>2022-11-14T13:37:53.784Z</time>
      </trkpt>
      <trkpt lat="45.683055" lon="7.610618">
        <ele>1275.307850</ele>
        <time>2022-11-14T13:38:12.908Z</time>
      </trkpt>
      <trkpt lat="45.683019" lon="7.610453">
        <ele>1276.600730</ele>
        <time>2022-11-14T13:38:30.069Z</time>
      </trkpt>
      <trkpt lat="45.683049" lon="7.610221">
        <ele>1278.365420</ele>
        <time>2022-11-14T13:38:52.304Z</time>
      </trkpt>
      <trkpt lat="45.683211" lon="7.610178">
        <ele>1280.129332</ele>
        <time>2022-11-14T13:39:14.819Z</time>
      </trkpt>
      <trkpt lat="45.683270" lon="7.609899">
        <ele>1282.309576</ele>
        <time>2022-11-14T13:39:42.416Z</time>
      </trkpt>
      <trkpt lat="45.683178" lon="7.608954">
        <ele>1289.445866</ele>
        <time>2022-11-14T13:41:10.963Z</time>
      </trkpt>
      <trkpt lat="45.683190" lon="7.608668">
        <ele>1291.588819</ele>
        <time>2022-11-14T13:41:36.984Z</time>
      </trkpt>
      <trkpt lat="45.683104" lon="7.608216">
        <ele>1294.999673</ele>
        <time>2022-11-14T13:42:22.177Z</time>
      </trkpt>
      <trkpt lat="45.682522" lon="7.606893">
        <ele>1305.870293</ele>
        <time>2022-11-14T13:44:56.810Z</time>
      </trkpt>
      <trkpt lat="45.682538" lon="7.606466">
        <ele>1308.843530</ele>
        <time>2022-11-14T13:45:34.045Z</time>
      </trkpt>
      <trkpt lat="45.682560" lon="7.605537">
        <ele>1314.298057</ele>
        <time>2022-11-14T13:46:53.958Z</time>
      </trkpt>
      <trkpt lat="45.682549" lon="7.605391">
        <ele>1315.035710</ele>
        <time>2022-11-14T13:47:07.884Z</time>
      </trkpt>
      <trkpt lat="45.682444" lon="7.605291">
        <ele>1315.942524</ele>
        <time>2022-11-14T13:47:21.514Z</time>
      </trkpt>
      <trkpt lat="45.682336" lon="7.605308">
        <ele>1316.723743</ele>
        <time>2022-11-14T13:47:36.515Z</time>
      </trkpt>
      <trkpt lat="45.681978" lon="7.605644">
        <ele>1319.801842</ele>
        <time>2022-11-14T13:48:31.703Z</time>
      </trkpt>
      <trkpt lat="45.681817" lon="7.605284">
        <ele>1321.949028</ele>
        <time>2022-11-14T13:49:08.384Z</time>
      </trkpt>
      <trkpt lat="45.681782" lon="7.605066">
        <ele>1323.072664</ele>
        <time>2022-11-14T13:49:27.220Z</time>
      </trkpt>
      <trkpt lat="45.681633" lon="7.604604">
        <ele>1325.601606</ele>
        <time>2022-11-14T13:50:10.725Z</time>
      </trkpt>
      <trkpt lat="45.681532" lon="7.603375">
        <ele>1331.652730</ele>
        <time>2022-11-14T13:51:53.601Z</time>
      </trkpt>
      <trkpt lat="45.681534" lon="7.603072">
        <ele>1333.134438</ele>
        <time>2022-11-14T13:52:20.038Z</time>
      </trkpt>
      <trkpt lat="45.681577" lon="7.602955">
        <ele>1333.780888</ele>
        <time>2022-11-14T13:52:31.761Z</time>
      </trkpt>
      <trkpt lat="45.681798" lon="7.602674">
        <ele>1335.849861</ele>
        <time>2022-11-14T13:53:10.361Z</time>
      </trkpt>
      <trkpt lat="45.681818" lon="7.602576">
        <ele>1336.349096</ele>
        <time>2022-11-14T13:53:19.287Z</time>
      </trkpt>
      <trkpt lat="45.681717" lon="7.602412">
        <ele>1337.524005</ele>
        <time>2022-11-14T13:53:38.295Z</time>
      </trkpt>
      <trkpt lat="45.681558" lon="7.601864">
        <ele>1341.796950</ele>
        <time>2022-11-14T13:54:33.258Z</time>
      </trkpt>
      <trkpt lat="45.681445" lon="7.600926">
        <ele>1348.651226</ele>
        <time>2022-11-14T13:56:03.599Z</time>
      </trkpt>
      <trkpt lat="45.680912" lon="7.598455">
        <ele>1367.947541</ele>
        <time>2022-11-14T14:00:10.153Z</time>
      </trkpt>
      <trkpt lat="45.680978" lon="7.598180">
        <ele>1370.163655</ele>
        <time>2022-11-14T14:00:40.822Z</time>
      </trkpt>
      <trkpt lat="45.681179" lon="7.597898">
        <ele>1373.234002</ele>
        <time>2022-11-14T14:01:17.634Z</time>
      </trkpt>
      <trkpt lat="45.681179" lon="7.597742">
        <ele>1374.422943</ele>
        <time>2022-11-14T14:01:37.170Z</time>
      </trkpt>
      <trkpt lat="45.681142" lon="7.597652">
        <ele>1375.218814</ele>
        <time>2022-11-14T14:01:46.020Z</time>
      </trkpt>
      <trkpt lat="45.680822" lon="7.597445">
        <ele>1378.764002</ele>
        <time>2022-11-14T14:02:32.621Z</time>
      </trkpt>
      <trkpt lat="45.680729" lon="7.597277">
        <ele>1380.271378</ele>
        <time>2022-11-14T14:02:50.949Z</time>
      </trkpt>
      <trkpt lat="45.680679" lon="7.597026">
        <ele>1382.106896</ele>
        <time>2022-11-14T14:03:18.018Z</time>
      </trkpt>
      <trkpt lat="45.680679" lon="7.596439">
        <ele>1386.235002</ele>
        <time>2022-11-14T14:04:11.924Z</time>
      </trkpt>
      <trkpt lat="45.680596" lon="7.596280">
        <ele>1387.630823</ele>
        <time>2022-11-14T14:04:28.799Z</time>
      </trkpt>
      <trkpt lat="45.680226" lon="7.596218">
        <ele>1391.380612</ele>
        <time>2022-11-14T14:05:19.402Z</time>
      </trkpt>
      <trkpt lat="45.680032" lon="7.595660">
        <ele>1396.287285</ele>
        <time>2022-11-14T14:06:18.294Z</time>
      </trkpt>
      <trkpt lat="45.679934" lon="7.595524">
        <ele>1397.973302</ele>
        <time>2022-11-14T14:06:37.788Z</time>
      </trkpt>
      <trkpt lat="45.679941" lon="7.595153">
        <ele>1401.176090</ele>
        <time>2022-11-14T14:07:15.387Z</time>
      </trkpt>
      <trkpt lat="45.679897" lon="7.594947">
        <ele>1403.035028</ele>
        <time>2022-11-14T14:07:36.401Z</time>
      </trkpt>
      <trkpt lat="45.679705" lon="7.594518">
        <ele>1407.431624</ele>
        <time>2022-11-14T14:08:25.619Z</time>
      </trkpt>
      <trkpt lat="45.679690" lon="7.594161">
        <ele>1410.518007</ele>
        <time>2022-11-14T14:09:02.111Z</time>
      </trkpt>
      <trkpt lat="45.679614" lon="7.594034">
        <ele>1411.961052</ele>
        <time>2022-11-14T14:09:19.705Z</time>
      </trkpt>
      <trkpt lat="45.679461" lon="7.593832">
        <ele>1414.532076</ele>
        <time>2022-11-14T14:09:53.498Z</time>
      </trkpt>
      <trkpt lat="45.678959" lon="7.593603">
        <ele>1422.091203</ele>
        <time>2022-11-14T14:11:20.195Z</time>
      </trkpt>
      <trkpt lat="45.678841" lon="7.593465">
        <ele>1424.342205</ele>
        <time>2022-11-14T14:11:45.585Z</time>
      </trkpt>
      <trkpt lat="45.678708" lon="7.592894">
        <ele>1430.554334</ele>
        <time>2022-11-14T14:12:59.492Z</time>
      </trkpt>
      <trkpt lat="45.678643" lon="7.592796">
        <ele>1431.948965</ele>
        <time>2022-11-14T14:13:15.147Z</time>
      </trkpt>
      <trkpt lat="45.678192" lon="7.592616">
        <ele>1438.865344</ele>
        <time>2022-11-14T14:14:32.090Z</time>
      </trkpt>
      <trkpt lat="45.678082" lon="7.592454">
        <ele>1441.196871</ele>
        <time>2022-11-14T14:14:56.232Z</time>
      </trkpt>
      <trkpt lat="45.677930" lon="7.591905">
        <ele>1446.077300</ele>
        <time>2022-11-14T14:15:51.904Z</time>
      </trkpt>
      <trkpt lat="45.677848" lon="7.591776">
        <ele>1447.444139</ele>
        <time>2022-11-14T14:16:12.329Z</time>
      </trkpt>
      <trkpt lat="45.677725" lon="7.591837">
        <ele>1448.904351</ele>
        <time>2022-11-14T14:16:33.488Z</time>
      </trkpt>
      <trkpt lat="45.677609" lon="7.591794">
        <ele>1450.248494</ele>
        <time>2022-11-14T14:16:49.363Z</time>
      </trkpt>
      <trkpt lat="45.677549" lon="7.591213">
        <ele>1454.851542</ele>
        <time>2022-11-14T14:17:49.535Z</time>
      </trkpt>
      <trkpt lat="45.677897" lon="7.590438">
        <ele>1462.071805</ele>
        <time>2022-11-14T14:19:14.565Z</time>
      </trkpt>
      <trkpt lat="45.677904" lon="7.590287">
        <ele>1463.089935</ele>
        <time>2022-11-14T14:19:27.563Z</time>
      </trkpt>
      <trkpt lat="45.677851" lon="7.590262">
        <ele>1463.590340</ele>
        <time>2022-11-14T14:19:39.978Z</time>
      </trkpt>
      <trkpt lat="45.677819" lon="7.590145">
        <ele>1464.377539</ele>
        <time>2022-11-14T14:19:50.406Z</time>
      </trkpt>
      <trkpt lat="45.677825" lon="7.589700">
        <ele>1467.166105</ele>
        <time>2022-11-14T14:20:28.881Z</time>
      </trkpt>
      <trkpt lat="45.677720" lon="7.589530">
        <ele>1468.587706</ele>
        <time>2022-11-14T14:20:45.284Z</time>
      </trkpt>
      <trkpt lat="45.677228" lon="7.589284">
        <ele>1473.261012</ele>
        <time>2022-11-14T14:21:51.759Z</time>
      </trkpt>
      <trkpt lat="45.676857" lon="7.588829">
        <ele>1477.642152</ele>
        <time>2022-11-14T14:23:01.412Z</time>
      </trkpt>
      <trkpt lat="45.676645" lon="7.588752">
        <ele>1479.818300</ele>
        <time>2022-11-14T14:23:35.759Z</time>
      </trkpt>
      <trkpt lat="45.676463" lon="7.588548">
        <ele>1482.313814</ele>
        <time>2022-11-14T14:24:04.868Z</time>
      </trkpt>
      <trkpt lat="45.676285" lon="7.588122">
        <ele>1486.057683</ele>
        <time>2022-11-14T14:24:51.494Z</time>
      </trkpt>
      <trkpt lat="45.676189" lon="7.588049">
        <ele>1487.231198</ele>
        <time>2022-11-14T14:25:11.622Z</time>
      </trkpt>
      <trkpt lat="45.676072" lon="7.588048">
        <ele>1488.494240</ele>
        <time>2022-11-14T14:25:25.579Z</time>
      </trkpt>
      <trkpt lat="45.675868" lon="7.588319">
        <ele>1491.498872</ele>
        <time>2022-11-14T14:26:07.424Z</time>
      </trkpt>
      <trkpt lat="45.675504" lon="7.588664">
        <ele>1496.211805</ele>
        <time>2022-11-14T14:27:05.058Z</time>
      </trkpt>
      <trkpt lat="45.675382" lon="7.588704">
        <ele>1497.562917</ele>
        <time>2022-11-14T14:27:21.514Z</time>
      </trkpt>
      <trkpt lat="45.674833" lon="7.588463">
        <ele>1502.992535</ele>
        <time>2022-11-14T14:28:39.567Z</time>
      </trkpt>
      <trkpt lat="45.674796" lon="7.588256">
        <ele>1504.390245</ele>
        <time>2022-11-14T14:28:59.015Z</time>
      </trkpt>
      <trkpt lat="45.674981" lon="7.588200">
        <ele>1506.160548</ele>
        <time>2022-11-14T14:29:22.301Z</time>
      </trkpt>
      <trkpt lat="45.674881" lon="7.588001">
        <ele>1507.764011</ele>
        <time>2022-11-14T14:29:41.881Z</time>
      </trkpt>
      <trkpt lat="45.674895" lon="7.587871">
        <ele>1508.624455</ele>
        <time>2022-11-14T14:29:52.345Z</time>
      </trkpt>
      <trkpt lat="45.675129" lon="7.587849">
        <ele>1510.819906</ele>
        <time>2022-11-14T14:30:23.079Z</time>
      </trkpt>
      <trkpt lat="45.675257" lon="7.587727">
        <ele>1512.259679</ele>
        <time>2022-11-14T14:30:42.688Z</time>
      </trkpt>
      <trkpt lat="45.675426" lon="7.587694">
        <ele>1513.856531</ele>
        <time>2022-11-14T14:31:07.083Z</time>
      </trkpt>
      <trkpt lat="45.675135" lon="7.587143">
        <ele>1523.260244</ele>
        <time>2022-11-14T14:32:18.282Z</time>
      </trkpt>
      <trkpt lat="45.675108" lon="7.586610">
        <ele>1531.540343</ele>
        <time>2022-11-14T14:33:19.401Z</time>
      </trkpt>
      <trkpt lat="45.674836" lon="7.586365">
        <ele>1538.667084</ele>
        <time>2022-11-14T14:34:13.192Z</time>
      </trkpt>
      <trkpt lat="45.674851" lon="7.586158">
        <ele>1541.891607</ele>
        <time>2022-11-14T14:34:47.121Z</time>
      </trkpt>
      <trkpt lat="45.674649" lon="7.586066">
        <ele>1546.592300</ele>
        <time>2022-11-14T14:36:08.153Z</time>
      </trkpt>
      <trkpt lat="45.674629" lon="7.585940">
        <ele>1548.594330</ele>
        <time>2022-11-14T14:36:33.643Z</time>
      </trkpt>
      <trkpt lat="45.674543" lon="7.585967">
        <ele>1550.546725</ele>
        <time>2022-11-14T14:36:55.999Z</time>
      </trkpt>
      <trkpt lat="45.674391" lon="7.585869">
        <ele>1554.243563</ele>
        <time>2022-11-14T14:38:11.474Z</time>
      </trkpt>
      <trkpt lat="45.674279" lon="7.585762">
        <ele>1558.986335</ele>
        <time>2022-11-14T14:38:55.492Z</time>
      </trkpt>
      <trkpt lat="45.673938" lon="7.585642">
        <ele>1572.158828</ele>
        <time>2022-11-14T14:41:14.802Z</time>
      </trkpt>
      <trkpt lat="45.673771" lon="7.585453">
        <ele>1580.145321</ele>
        <time>2022-11-14T14:42:49.216Z</time>
      </trkpt>
      <trkpt lat="45.673542" lon="7.585436">
        <ele>1588.747035</ele>
        <time>2022-11-14T14:43:57.291Z</time>
      </trkpt>
      <trkpt lat="45.673468" lon="7.585320">
        <ele>1592.864070</ele>
        <time>2022-11-14T14:44:56.389Z</time>
      </trkpt>
      <trkpt lat="45.673458" lon="7.585095">
        <ele>1598.773493</ele>
        <time>2022-11-14T14:45:43.504Z</time>
      </trkpt>
      <trkpt lat="45.673647" lon="7.584330">
        <ele>1620.041446</ele>
        <time>2022-11-14T14:49:17.014Z</time>
      </trkpt>
      <trkpt lat="45.673632" lon="7.584081">
        <ele>1625.100722</ele>
        <time>2022-11-14T14:49:56.994Z</time>
      </trkpt>
      <trkpt lat="45.673759" lon="7.583928">
        <ele>1629.232479</ele>
        <time>2022-11-14T14:51:03.303Z</time>
      </trkpt>
      <trkpt lat="45.673745" lon="7.583695">
        <ele>1633.299551</ele>
        <time>2022-11-14T14:51:56.844Z</time>
      </trkpt>
      <trkpt lat="45.673792" lon="7.583464">
        <ele>1637.483734</ele>
        <time>2022-11-14T14:53:02.139Z</time>
      </trkpt>
      <trkpt lat="45.674089" lon="7.582952">
        <ele>1649.056425</ele>
        <time>2022-11-14T14:55:15.939Z</time>
      </trkpt>
      <trkpt lat="45.673867" lon="7.582948">
        <ele>1654.582237</ele>
        <time>2022-11-14T14:56:15.277Z</time>
      </trkpt>
      <trkpt lat="45.673905" lon="7.582720">
        <ele>1658.658626</ele>
        <time>2022-11-14T14:56:41.464Z</time>
      </trkpt>
      <trkpt lat="45.673770" lon="7.582804">
        <ele>1662.322483</ele>
        <time>2022-11-14T14:57:20.616Z</time>
      </trkpt>
      <trkpt lat="45.673754" lon="7.582678">
        <ele>1664.549648</ele>
        <time>2022-11-14T14:57:34.690Z</time>
      </trkpt>
      <trkpt lat="45.673839" lon="7.582540">
        <ele>1667.350708</ele>
        <time>2022-11-14T14:57:53.168Z</time>
      </trkpt>
      <trkpt lat="45.673786" lon="7.582459">
        <ele>1668.346259</ele>
        <time>2022-11-14T14:58:21.083Z</time>
      </trkpt>
      <trkpt lat="45.673496" lon="7.582752">
        <ele>1672.904032</ele>
        <time>2022-11-14T14:59:22.567Z</time>
      </trkpt>
      <trkpt lat="45.673397" lon="7.582726">
        <ele>1674.196347</ele>
        <time>2022-11-14T14:59:38.343Z</time>
      </trkpt>
      <trkpt lat="45.672706" lon="7.581935">
        <ele>1685.557290</ele>
        <time>2022-11-14T15:02:10.557Z</time>
      </trkpt>
      <trkpt lat="45.672463" lon="7.581789">
        <ele>1688.941042</ele>
        <time>2022-11-14T15:03:13.611Z</time>
      </trkpt>
      <trkpt lat="45.672280" lon="7.581747">
        <ele>1691.753173</ele>
        <time>2022-11-14T15:03:45.515Z</time>
      </trkpt>
      <trkpt lat="45.671801" lon="7.581895">
        <ele>1700.136643</ele>
        <time>2022-11-14T15:05:16.643Z</time>
      </trkpt>
      <trkpt lat="45.671624" lon="7.581847">
        <ele>1703.218619</ele>
        <time>2022-11-14T15:05:53.165Z</time>
      </trkpt>
      <trkpt lat="45.671526" lon="7.581750">
        <ele>1705.257125</ele>
        <time>2022-11-14T15:06:18.749Z</time>
      </trkpt>
      <trkpt lat="45.671331" lon="7.581372">
        <ele>1710.873937</ele>
        <time>2022-11-14T15:07:33.516Z</time>
      </trkpt>
      <trkpt lat="45.671053" lon="7.581124">
        <ele>1716.478303</ele>
        <time>2022-11-14T15:08:52.508Z</time>
      </trkpt>
      <trkpt lat="45.670895" lon="7.580902">
        <ele>1720.266401</ele>
        <time>2022-11-14T15:09:49.483Z</time>
      </trkpt>
      <trkpt lat="45.670566" lon="7.580907">
        <ele>1727.336876</ele>
        <time>2022-11-14T15:11:16.511Z</time>
      </trkpt>
      <trkpt lat="45.670465" lon="7.580991">
        <ele>1729.899810</ele>
        <time>2022-11-14T15:11:47.733Z</time>
      </trkpt>
      <trkpt lat="45.670102" lon="7.580899">
        <ele>1737.987801</ele>
        <time>2022-11-14T15:13:29.354Z</time>
      </trkpt>
      <trkpt lat="45.669887" lon="7.580593">
        <ele>1744.640521</ele>
        <time>2022-11-14T15:14:51.148Z</time>
      </trkpt>
      <trkpt lat="45.669504" lon="7.580480">
        <ele>1753.220100</ele>
        <time>2022-11-14T15:16:33.845Z</time>
      </trkpt>
      <trkpt lat="45.669227" lon="7.580077">
        <ele>1761.433369</ele>
        <time>2022-11-14T15:18:13.163Z</time>
      </trkpt>
      <trkpt lat="45.668854" lon="7.579836">
        <ele>1767.922899</ele>
        <time>2022-11-14T15:19:50.198Z</time>
      </trkpt>
      <trkpt lat="45.668503" lon="7.579517">
        <ele>1774.516262</ele>
        <time>2022-11-14T15:21:20.550Z</time>
      </trkpt>
      <trkpt lat="45.668112" lon="7.579537">
        <ele>1780.720252</ele>
        <time>2022-11-14T15:22:40.649Z</time>
      </trkpt>
      <trkpt lat="45.667451" lon="7.579106">
        <ele>1790.952484</ele>
        <time>2022-11-14T15:24:53.070Z</time>
      </trkpt>
      <trkpt lat="45.667301" lon="7.578916">
        <ele>1792.950297</ele>
        <time>2022-11-14T15:25:26.646Z</time>
      </trkpt>
      <trkpt lat="45.667257" lon="7.578745">
        <ele>1794.220270</ele>
        <time>2022-11-14T15:25:48.019Z</time>
      </trkpt>
      <trkpt lat="45.666758" lon="7.578593">
        <ele>1799.308264</ele>
        <time>2022-11-14T15:27:11.582Z</time>
      </trkpt>
      <trkpt lat="45.666593" lon="7.578463">
        <ele>1801.186736</ele>
        <time>2022-11-14T15:27:41.837Z</time>
      </trkpt>
      <trkpt lat="45.665917" lon="7.578511">
        <ele>1808.518452</ele>
        <time>2022-11-14T15:29:31.442Z</time>
      </trkpt>
      <trkpt lat="45.665481" lon="7.578294">
        <ele>1815.306294</ele>
        <time>2022-11-14T15:30:48.722Z</time>
      </trkpt>
      <trkpt lat="45.665318" lon="7.578273">
        <ele>1817.712802</ele>
        <time>2022-11-14T15:31:19.143Z</time>
      </trkpt>
      <trkpt lat="45.665272" lon="7.578518">
        <ele>1820.319734</ele>
        <time>2022-11-14T15:31:52.626Z</time>
      </trkpt>
      <trkpt lat="45.665259" lon="7.578550">
        <ele>1820.700095</ele>
        <time>2022-11-14T15:31:58.823Z</time>
      </trkpt>
      <trkpt lat="45.665174" lon="7.578744">
        <ele>1823.053075</ele>
        <time>2022-11-14T15:32:31.498Z</time>
      </trkpt>
      <trkpt lat="45.665173" lon="7.578984">
        <ele>1825.519396</ele>
        <time>2022-11-14T15:33:05.515Z</time>
      </trkpt>
      <trkpt lat="45.665042" lon="7.579129">
        <ele>1827.954712</ele>
        <time>2022-11-14T15:33:42.320Z</time>
      </trkpt>
      <trkpt lat="45.664904" lon="7.579752">
        <ele>1836.195507</ele>
        <time>2022-11-14T15:35:34.093Z</time>
      </trkpt>
      <trkpt lat="45.664728" lon="7.579891">
        <ele>1842.132268</ele>
        <time>2022-11-14T15:36:28.503Z</time>
      </trkpt>
      <trkpt lat="45.664598" lon="7.580139">
        <ele>1848.530464</ele>
        <time>2022-11-14T15:37:31.760Z</time>
      </trkpt>
      <trkpt lat="45.664491" lon="7.580150">
        <ele>1851.698531</ele>
        <time>2022-11-14T15:38:03.820Z</time>
      </trkpt>
      <trkpt lat="45.664334" lon="7.580295">
        <ele>1857.216960</ele>
        <time>2022-11-14T15:39:03.960Z</time>
      </trkpt>
      <trkpt lat="45.664292" lon="7.580681">
        <ele>1865.279495</ele>
        <time>2022-11-14T15:40:33.930Z</time>
      </trkpt>
      <trkpt lat="45.664130" lon="7.580824">
        <ele>1870.900779</ele>
        <time>2022-11-14T15:41:44.361Z</time>
      </trkpt>
      <trkpt lat="45.664023" lon="7.580814">
        <ele>1874.067433</ele>
        <time>2022-11-14T15:42:19.094Z</time>
      </trkpt>
      <trkpt lat="45.663766" lon="7.580969">
        <ele>1882.303793</ele>
        <time>2022-11-14T15:43:58.758Z</time>
      </trkpt>
      <trkpt lat="45.663402" lon="7.581015">
        <ele>1893.689083</ele>
        <time>2022-11-14T15:46:07.881Z</time>
      </trkpt>
      <trkpt lat="45.663363" lon="7.581159">
        <ele>1897.154027</ele>
        <time>2022-11-14T15:46:42.734Z</time>
      </trkpt>
      <trkpt lat="45.663082" lon="7.581150">
        <ele>1906.177385</ele>
        <time>2022-11-14T15:48:20.777Z</time>
      </trkpt>
      <trkpt lat="45.663082" lon="7.581366">
        <ele>1911.023650</ele>
        <time>2022-11-14T15:49:09.867Z</time>
      </trkpt>
      <trkpt lat="45.663029" lon="7.581384">
        <ele>1912.772410</ele>
        <time>2022-11-14T15:49:32.275Z</time>
      </trkpt>
      <trkpt lat="45.662757" lon="7.581315">
        <ele>1921.640747</ele>
        <time>2022-11-14T15:51:06.969Z</time>
      </trkpt>
      <trkpt lat="45.662649" lon="7.580966">
        <ele>1930.204387</ele>
        <time>2022-11-14T15:52:38.411Z</time>
      </trkpt>
      <trkpt lat="45.662578" lon="7.580967">
        <ele>1932.483849</ele>
        <time>2022-11-14T15:53:00.219Z</time>
      </trkpt>
      <trkpt lat="45.662552" lon="7.581046">
        <ele>1934.443044</ele>
        <time>2022-11-14T15:53:17.706Z</time>
      </trkpt>
      <trkpt lat="45.662297" lon="7.581262">
        <ele>1943.956407</ele>
        <time>2022-11-14T15:54:50.587Z</time>
      </trkpt>
      <trkpt lat="45.662102" lon="7.581112">
        <ele>1948.647712</ele>
        <time>2022-11-14T15:55:59.488Z</time>
      </trkpt>
      <trkpt lat="45.662062" lon="7.581144">
        <ele>1949.614363</ele>
        <time>2022-11-14T15:56:13.681Z</time>
      </trkpt>
      <trkpt lat="45.662054" lon="7.581370">
        <ele>1952.950280</ele>
        <time>2022-11-14T15:56:51.820Z</time>
      </trkpt>
      <trkpt lat="45.661923" lon="7.581375">
        <ele>1955.714471</ele>
        <time>2022-11-14T15:57:30.174Z</time>
      </trkpt>
      <trkpt lat="45.661976" lon="7.581565">
        <ele>1958.730278</ele>
        <time>2022-11-14T15:58:08.710Z</time>
      </trkpt>
      <trkpt lat="45.662055" lon="7.581649">
        <ele>1960.806376</ele>
        <time>2022-11-14T15:58:30.088Z</time>
      </trkpt>
      <trkpt lat="45.662027" lon="7.581751">
        <ele>1962.421871</ele>
        <time>2022-11-14T15:58:49.796Z</time>
      </trkpt>
      <trkpt lat="45.661788" lon="7.581687">
        <ele>1967.550670</ele>
        <time>2022-11-14T15:59:51.428Z</time>
      </trkpt>
      <trkpt lat="45.661763" lon="7.581912">
        <ele>1970.909248</ele>
        <time>2022-11-14T16:00:30.056Z</time>
      </trkpt>
      <trkpt lat="45.661653" lon="7.581813">
        <ele>1973.650334</ele>
        <time>2022-11-14T16:01:02.479Z</time>
      </trkpt>
      <trkpt lat="45.661612" lon="7.581892">
        <ele>1975.100932</ele>
        <time>2022-11-14T16:01:15.632Z</time>
      </trkpt>
      <trkpt lat="45.661552" lon="7.581849">
        <ele>1976.516401</ele>
        <time>2022-11-14T16:01:28.775Z</time>
      </trkpt>
      <trkpt lat="45.661521" lon="7.581926">
        <ele>1977.826397</ele>
        <time>2022-11-14T16:01:41.893Z</time>
      </trkpt>
      <trkpt lat="45.661390" lon="7.581956">
        <ele>1980.624774</ele>
        <time>2022-11-14T16:02:12.679Z</time>
      </trkpt>
      <trkpt lat="45.661284" lon="7.581730">
        <ele>1983.463700</ele>
        <time>2022-11-14T16:02:46.553Z</time>
      </trkpt>
      <trkpt lat="45.661175" lon="7.581771">
        <ele>1984.799748</ele>
        <time>2022-11-14T16:03:12.113Z</time>
      </trkpt>
      <trkpt lat="45.660917" lon="7.582400">
        <ele>1990.842307</ele>
        <time>2022-11-14T16:04:46.288Z</time>
      </trkpt>
      <trkpt lat="45.661064" lon="7.582551">
        <ele>1992.987501</ele>
        <time>2022-11-14T16:05:16.907Z</time>
      </trkpt>
      <trkpt lat="45.661027" lon="7.582595">
        <ele>1993.557834</ele>
        <time>2022-11-14T16:05:26.327Z</time>
      </trkpt>
      <trkpt lat="45.661035" lon="7.582744">
        <ele>1994.795960</ele>
        <time>2022-11-14T16:05:45.191Z</time>
      </trkpt>
      <trkpt lat="45.660972" lon="7.582785">
        <ele>1995.616419</ele>
        <time>2022-11-14T16:05:56.975Z</time>
      </trkpt>
      <trkpt lat="45.661272" lon="7.582888">
        <ele>1999.273731</ele>
        <time>2022-11-14T16:06:49.128Z</time>
      </trkpt>
      <trkpt lat="45.661290" lon="7.583123">
        <ele>2001.232391</ele>
        <time>2022-11-14T16:07:14.858Z</time>
      </trkpt>
      <trkpt lat="45.661228" lon="7.583311">
        <ele>2002.954693</ele>
        <time>2022-11-14T16:07:38.246Z</time>
      </trkpt>
      <trkpt lat="45.661070" lon="7.583395">
        <ele>2004.477477</ele>
        <time>2022-11-14T16:08:06.763Z</time>
      </trkpt>
      <trkpt lat="45.661015" lon="7.583334">
        <ele>2005.067997</ele>
        <time>2022-11-14T16:08:18.299Z</time>
      </trkpt>
      <trkpt lat="45.660790" lon="7.583363">
        <ele>2006.985049</ele>
        <time>2022-11-14T16:08:54.402Z</time>
      </trkpt>
      <trkpt lat="45.660707" lon="7.583471">
        <ele>2007.937075</ele>
        <time>2022-11-14T16:09:12.794Z</time>
      </trkpt>
      <trkpt lat="45.660434" lon="7.583077">
        <ele>2011.227553</ele>
        <time>2022-11-14T16:10:15.026Z</time>
      </trkpt>
      <trkpt lat="45.660161" lon="7.583029">
        <ele>2013.561622</ele>
        <time>2022-11-14T16:10:58.834Z</time>
      </trkpt>
      <trkpt lat="45.660154" lon="7.583109">
        <ele>2014.039796</ele>
        <time>2022-11-14T16:11:08.767Z</time>
      </trkpt>
      <trkpt lat="45.660081" lon="7.583098">
        <ele>2014.662691</ele>
        <time>2022-11-14T16:11:21.609Z</time>
      </trkpt>
      <trkpt lat="45.660095" lon="7.583155">
        <ele>2015.021019</ele>
        <time>2022-11-14T16:11:28.213Z</time>
      </trkpt>
      <trkpt lat="45.659987" lon="7.583277">
        <ele>2016.188699</ele>
        <time>2022-11-14T16:11:49.698Z</time>
      </trkpt>
      <trkpt lat="45.659919" lon="7.583474">
        <ele>2017.491813</ele>
        <time>2022-11-14T16:12:16.319Z</time>
      </trkpt>
      <trkpt lat="45.659606" lon="7.583468">
        <ele>2019.705591</ele>
        <time>2022-11-14T16:13:04.841Z</time>
      </trkpt>
      <trkpt lat="45.659375" lon="7.583793">
        <ele>2021.696773</ele>
        <time>2022-11-14T16:13:52.955Z</time>
      </trkpt>
      <trkpt lat="45.658810" lon="7.584231">
        <ele>2025.646317</ele>
        <time>2022-11-14T16:15:27.852Z</time>
      </trkpt>
      <trkpt lat="45.658228" lon="7.584397">
        <ele>2029.293764</ele>
        <time>2022-11-14T16:16:54.353Z</time>
      </trkpt>
      <trkpt lat="45.657996" lon="7.584513">
        <ele>2031.449291</ele>
        <time>2022-11-14T16:17:31.837Z</time>
      </trkpt>
      <trkpt lat="45.657919" lon="7.584663">
        <ele>2032.676260</ele>
        <time>2022-11-14T16:17:54.444Z</time>
      </trkpt>
      <trkpt lat="45.657564" lon="7.584768">
        <ele>2036.095588</ele>
        <time>2022-11-14T16:18:54.729Z</time>
      </trkpt>
      <trkpt lat="45.657365" lon="7.585045">
        <ele>2038.714436</ele>
        <time>2022-11-14T16:19:39.175Z</time>
      </trkpt>
      <trkpt lat="45.657241" lon="7.585336">
        <ele>2040.961364</ele>
        <time>2022-11-14T16:20:17.572Z</time>
      </trkpt>
      <trkpt lat="45.657235" lon="7.585494">
        <ele>2042.004564</ele>
        <time>2022-11-14T16:20:35.142Z</time>
      </trkpt>
      <trkpt lat="45.657123" lon="7.585594">
        <ele>2043.249839</ele>
        <time>2022-11-14T16:21:00.854Z</time>
      </trkpt>
      <trkpt lat="45.657027" lon="7.585556">
        <ele>2044.189373</ele>
        <time>2022-11-14T16:21:16.552Z</time>
      </trkpt>
      <trkpt lat="45.656742" lon="7.585413">
        <ele>2047.080891</ele>
        <time>2022-11-14T16:22:15.882Z</time>
      </trkpt>
      <trkpt lat="45.656488" lon="7.585527">
        <ele>2049.817957</ele>
        <time>2022-11-14T16:23:04.121Z</time>
      </trkpt>
      <trkpt lat="45.656264" lon="7.585750">
        <ele>2052.623794</ele>
        <time>2022-11-14T16:23:52.333Z</time>
      </trkpt>
      <trkpt lat="45.656243" lon="7.585896">
        <ele>2053.695021</ele>
        <time>2022-11-14T16:24:14.483Z</time>
      </trkpt>
      <trkpt lat="45.656378" lon="7.586050">
        <ele>2055.470273</ele>
        <time>2022-11-14T16:24:43.587Z</time>
      </trkpt>
      <trkpt lat="45.656409" lon="7.586219">
        <ele>2056.725930</ele>
        <time>2022-11-14T16:25:06.818Z</time>
      </trkpt>
      <trkpt lat="45.656370" lon="7.586390">
        <ele>2058.018600</ele>
        <time>2022-11-14T16:25:33.126Z</time>
      </trkpt>
      <trkpt lat="45.656369" lon="7.586504">
        <ele>2058.837933</ele>
        <time>2022-11-14T16:25:45.247Z</time>
      </trkpt>
      <trkpt lat="45.656457" lon="7.586723">
        <ele>2060.653336</ele>
        <time>2022-11-14T16:26:18.088Z</time>
      </trkpt>
      <trkpt lat="45.656453" lon="7.587160">
        <ele>2063.794130</ele>
        <time>2022-11-14T16:27:05.104Z</time>
      </trkpt>
      <trkpt lat="45.656388" lon="7.587255">
        <ele>2064.749515</ele>
        <time>2022-11-14T16:27:18.762Z</time>
      </trkpt>
      <trkpt lat="45.656227" lon="7.587262">
        <ele>2065.775011</ele>
        <time>2022-11-14T16:27:40.740Z</time>
      </trkpt>
      <trkpt lat="45.656108" lon="7.587337">
        <ele>2066.486930</ele>
        <time>2022-11-14T16:27:59.346Z</time>
      </trkpt>
      <trkpt lat="45.655918" lon="7.587524">
        <ele>2067.749517</ele>
        <time>2022-11-14T16:28:31.351Z</time>
      </trkpt>
      <trkpt lat="45.655746" lon="7.588296">
        <ele>2070.850197</ele>
        <time>2022-11-14T16:29:51.006Z</time>
      </trkpt>
      <trkpt lat="45.655478" lon="7.588722">
        <ele>2073.043448</ele>
        <time>2022-11-14T16:30:46.100Z</time>
      </trkpt>
      <trkpt lat="45.655356" lon="7.589060">
        <ele>2074.499168</ele>
        <time>2022-11-14T16:31:26.317Z</time>
      </trkpt>
      <trkpt lat="45.654771" lon="7.589963">
        <ele>2086.630697</ele>
        <time>2022-11-14T16:34:07.123Z</time>
      </trkpt>
      <trkpt lat="45.654651" lon="7.590264">
        <ele>2090.241390</ele>
        <time>2022-11-14T16:34:47.040Z</time>
      </trkpt>
      <trkpt lat="45.654528" lon="7.590299">
        <ele>2092.110909</ele>
        <time>2022-11-14T16:35:24.580Z</time>
      </trkpt>
      <trkpt lat="45.654488" lon="7.590244">
        <ele>2092.937956</ele>
        <time>2022-11-14T16:35:34.343Z</time>
      </trkpt>
      <trkpt lat="45.654449" lon="7.590023">
        <ele>2095.313029</ele>
        <time>2022-11-14T16:36:02.723Z</time>
      </trkpt>
      <trkpt lat="45.654510" lon="7.589669">
        <ele>2099.112137</ele>
        <time>2022-11-14T16:37:09.901Z</time>
      </trkpt>
      <trkpt lat="45.654500" lon="7.589469">
        <ele>2101.201458</ele>
        <time>2022-11-14T16:37:40.001Z</time>
      </trkpt>
      <trkpt lat="45.654445" lon="7.589067">
        <ele>2106.947724</ele>
        <time>2022-11-14T16:38:56.358Z</time>
      </trkpt>
      <trkpt lat="45.654329" lon="7.588841">
        <ele>2111.019974</ele>
        <time>2022-11-14T16:39:56.481Z</time>
      </trkpt>
      <trkpt lat="45.654176" lon="7.588761">
        <ele>2114.404715</ele>
        <time>2022-11-14T16:40:34.773Z</time>
      </trkpt>
      <trkpt lat="45.653744" lon="7.588764">
        <ele>2123.381010</ele>
        <time>2022-11-14T16:42:37.262Z</time>
      </trkpt>
      <trkpt lat="45.653661" lon="7.588537">
        <ele>2127.101741</ele>
        <time>2022-11-14T16:43:19.021Z</time>
      </trkpt>
      <trkpt lat="45.653458" lon="7.588569">
        <ele>2131.345247</ele>
        <time>2022-11-14T16:44:07.176Z</time>
      </trkpt>
      <trkpt lat="45.653491" lon="7.588315">
        <ele>2135.097499</ele>
        <time>2022-11-14T16:44:48.122Z</time>
      </trkpt>
      <trkpt lat="45.653416" lon="7.588268">
        <ele>2136.798816</ele>
        <time>2022-11-14T16:45:07.088Z</time>
      </trkpt>
      <trkpt lat="45.652654" lon="7.588041">
        <ele>2148.917558</ele>
        <time>2022-11-14T16:47:57.662Z</time>
      </trkpt>
      <trkpt lat="45.652217" lon="7.588009">
        <ele>2155.354422</ele>
        <time>2022-11-14T16:49:26.008Z</time>
      </trkpt>
      <trkpt lat="45.651896" lon="7.587727">
        <ele>2160.895737</ele>
        <time>2022-11-14T16:50:36.488Z</time>
      </trkpt>
      <trkpt lat="45.651586" lon="7.587643">
        <ele>2165.537046</ele>
        <time>2022-11-14T16:51:31.911Z</time>
      </trkpt>
      <trkpt lat="45.651235" lon="7.587767">
        <ele>2170.264863</ele>
        <time>2022-11-14T16:52:33.651Z</time>
      </trkpt>
      <trkpt lat="45.651132" lon="7.587943">
        <ele>2172.362498</ele>
        <time>2022-11-14T16:53:04.740Z</time>
      </trkpt>
      <trkpt lat="45.650928" lon="7.588141">
        <ele>2175.585329</ele>
        <time>2022-11-14T16:53:53.883Z</time>
      </trkpt>
      <trkpt lat="45.650826" lon="7.588110">
        <ele>2176.948561</ele>
        <time>2022-11-14T16:54:13.501Z</time>
      </trkpt>
      <trkpt lat="45.650095" lon="7.588800">
        <ele>2188.397973</ele>
        <time>2022-11-14T16:56:56.311Z</time>
      </trkpt>
      <trkpt lat="45.649662" lon="7.588851">
        <ele>2194.643625</ele>
        <time>2022-11-14T16:58:24.338Z</time>
      </trkpt>
      <trkpt lat="45.649335" lon="7.588729">
        <ele>2199.559963</ele>
        <time>2022-11-14T16:59:32.882Z</time>
      </trkpt>
      <trkpt lat="45.649231" lon="7.588598">
        <ele>2201.575905</ele>
        <time>2022-11-14T17:00:03.858Z</time>
      </trkpt>
      <trkpt lat="45.649070" lon="7.588510">
        <ele>2204.083290</ele>
        <time>2022-11-14T17:00:35.825Z</time>
      </trkpt>
      <trkpt lat="45.648276" lon="7.588819">
        <ele>2216.035604</ele>
        <time>2022-11-14T17:03:29.620Z</time>
      </trkpt>
      <trkpt lat="45.648231" lon="7.588895">
        <ele>2217.025612</ele>
        <time>2022-11-14T17:03:43.436Z</time>
      </trkpt>
      <trkpt lat="45.648213" lon="7.589159">
        <ele>2219.662235</ele>
        <time>2022-11-14T17:04:12.805Z</time>
      </trkpt>
      <trkpt lat="45.648136" lon="7.589317">
        <ele>2221.576732</ele>
        <time>2022-11-14T17:04:39.513Z</time>
      </trkpt>
      <trkpt lat="45.648118" lon="7.589926">
        <ele>2227.635636</ele>
        <time>2022-11-14T17:06:00.456Z</time>
      </trkpt>
      <trkpt lat="45.648013" lon="7.589992">
        <ele>2229.266423</ele>
        <time>2022-11-14T17:06:20.761Z</time>
      </trkpt>
      <trkpt lat="45.647687" lon="7.590025">
        <ele>2233.913447</ele>
        <time>2022-11-14T17:07:29.536Z</time>
      </trkpt>
      <trkpt lat="45.647213" lon="7.590243">
        <ele>2241.006361</ele>
        <time>2022-11-14T17:09:15.153Z</time>
      </trkpt>
      <trkpt lat="45.646066" lon="7.591419">
        <ele>2262.482236</ele>
        <time>2022-11-14T17:13:53.999Z</time>
      </trkpt>
      <trkpt lat="45.645485" lon="7.591797">
        <ele>2270.633567</ele>
        <time>2022-11-14T17:16:17.322Z</time>
      </trkpt>
      <trkpt lat="45.645231" lon="7.591888">
        <ele>2273.069752</ele>
        <time>2022-11-14T17:17:19.070Z</time>
      </trkpt>
      <trkpt lat="45.645063" lon="7.592022">
        <ele>2274.859387</ele>
        <time>2022-11-14T17:17:59.344Z</time>
      </trkpt>
      <trkpt lat="45.645010" lon="7.592132">
        <ele>2275.728332</ele>
        <time>2022-11-14T17:18:21.055Z</time>
      </trkpt>
      <trkpt lat="45.644885" lon="7.592153">
        <ele>2276.899312</ele>
        <time>2022-11-14T17:18:39.325Z</time>
      </trkpt>
      <trkpt lat="45.644872" lon="7.592226">
        <ele>2277.389294</ele>
        <time>2022-11-14T17:18:47.707Z</time>
      </trkpt>
      <trkpt lat="45.644525" lon="7.592347">
        <ele>2280.712291</ele>
        <time>2022-11-14T17:19:46.734Z</time>
      </trkpt>
      <trkpt lat="45.644354" lon="7.592334">
        <ele>2282.305502</ele>
        <time>2022-11-14T17:20:11.990Z</time>
      </trkpt>
      <trkpt lat="45.644288" lon="7.592561">
        <ele>2283.904609</ele>
        <time>2022-11-14T17:20:36.467Z</time>
      </trkpt>
      <trkpt lat="45.644226" lon="7.592610">
        <ele>2284.563644</ele>
        <time>2022-11-14T17:20:47.402Z</time>
      </trkpt>
      <trkpt lat="45.644138" lon="7.592990">
        <ele>2282.296006</ele>
        <time>2022-11-14T17:21:27.233Z</time>
      </trkpt>
      <trkpt lat="45.644069" lon="7.593002">
        <ele>2281.546719</ele>
        <time>2022-11-14T17:21:37.026Z</time>
      </trkpt>
      <trkpt lat="45.643811" lon="7.593407">
        <ele>2277.417416</ele>
        <time>2022-11-14T17:22:29.950Z</time>
      </trkpt>
      <trkpt lat="45.643659" lon="7.593448">
        <ele>2275.749999</ele>
        <time>2022-11-14T17:22:53.607Z</time>
      </trkpt>
      <trkpt lat="45.643513" lon="7.593692">
        <ele>2273.329562</ele>
        <time>2022-11-14T17:23:25.766Z</time>
      </trkpt>
      <trkpt lat="45.643505" lon="7.593794">
        <ele>2272.556026</ele>
        <time>2022-11-14T17:23:39.035Z</time>
      </trkpt>
      <trkpt lat="45.643205" lon="7.593691">
        <ele>2269.230214</ele>
        <time>2022-11-14T17:24:29.933Z</time>
      </trkpt>
      <trkpt lat="45.643116" lon="7.594363">
        <ele>2262.793743</ele>
        <time>2022-11-14T17:25:59.169Z</time>
      </trkpt>
      <trkpt lat="45.642999" lon="7.594228">
        <ele>2259.736703</ele>
        <time>2022-11-14T17:26:24.036Z</time>
      </trkpt>
      <trkpt lat="45.642956" lon="7.594404">
        <ele>2257.085974</ele>
        <time>2022-11-14T17:26:52.364Z</time>
      </trkpt>
      <trkpt lat="45.642672" lon="7.594398">
        <ele>2251.309779</ele>
        <time>2022-11-14T17:27:42.463Z</time>
      </trkpt>
      <trkpt lat="45.642604" lon="7.594650">
        <ele>2247.469261</ele>
        <time>2022-11-14T17:28:22.686Z</time>
      </trkpt>
      <trkpt lat="45.642248" lon="7.595148">
        <ele>2237.342635</ele>
        <time>2022-11-14T17:29:44.424Z</time>
      </trkpt>
      <trkpt lat="45.642103" lon="7.595266">
        <ele>2233.949977</ele>
        <time>2022-11-14T17:30:15.497Z</time>
      </trkpt>
      <trkpt lat="45.641625" lon="7.596349">
        <ele>2214.607864</ele>
        <time>2022-11-14T17:33:09.192Z</time>
      </trkpt>
      <trkpt lat="45.641383" lon="7.596598">
        <ele>2208.025431</ele>
        <time>2022-11-14T17:34:03.480Z</time>
      </trkpt>
      <trkpt lat="45.641293" lon="7.596797">
        <ele>2204.366648</ele>
        <time>2022-11-14T17:34:39.701Z</time>
      </trkpt>
      <trkpt lat="45.641187" lon="7.597132">
        <ele>2198.690098</ele>
        <time>2022-11-14T17:35:26.819Z</time>
      </trkpt>
      <trkpt lat="45.640933" lon="7.597386">
        <ele>2191.846859</ele>
        <time>2022-11-14T17:36:23.589Z</time>
      </trkpt>
      <trkpt lat="45.640809" lon="7.597783">
        <ele>2184.912371</ele>
        <time>2022-11-14T17:37:20.571Z</time>
      </trkpt>
      <trkpt lat="45.640731" lon="7.598617">
        <ele>2171.218469</ele>
        <time>2022-11-14T17:39:28.448Z</time>
      </trkpt>
      <trkpt lat="45.640270" lon="7.599086">
        <ele>2158.049839</ele>
        <time>2022-11-14T17:41:17.133Z</time>
      </trkpt>
      <trkpt lat="45.640227" lon="7.599270">
        <ele>2154.892435</ele>
        <time>2022-11-14T17:41:44.906Z</time>
      </trkpt>
      <trkpt lat="45.639980" lon="7.599647">
        <ele>2146.543930</ele>
        <time>2022-11-14T17:42:53.280Z</time>
      </trkpt>
      <trkpt lat="45.639821" lon="7.599790">
        <ele>2142.471029</ele>
        <time>2022-11-14T17:43:23.548Z</time>
      </trkpt>
      <trkpt lat="45.639830" lon="7.599874">
        <ele>2141.182609</ele>
        <time>2022-11-14T17:43:40.963Z</time>
      </trkpt>
      <trkpt lat="45.639885" lon="7.599952">
        <ele>2139.503036</ele>
        <time>2022-11-14T17:43:52.863Z</time>
      </trkpt>
      <trkpt lat="45.639887" lon="7.600027">
        <ele>2138.365109</ele>
        <time>2022-11-14T17:44:08.323Z</time>
      </trkpt>
      <trkpt lat="45.639352" lon="7.600906">
        <ele>2120.695972</ele>
        <time>2022-11-14T17:46:42.918Z</time>
      </trkpt>
      <trkpt lat="45.639140" lon="7.601056">
        <ele>2115.567004</ele>
        <time>2022-11-14T17:47:31.328Z</time>
      </trkpt>
      <trkpt lat="45.638631" lon="7.601770">
        <ele>2103.108663</ele>
        <time>2022-11-14T17:49:42.163Z</time>
      </trkpt>
      <trkpt lat="45.638545" lon="7.602454">
        <ele>2096.405465</ele>
        <time>2022-11-14T17:50:57.678Z</time>
      </trkpt>
      <trkpt lat="45.638116" lon="7.603127">
        <ele>2087.621332</ele>
        <time>2022-11-14T17:52:35.410Z</time>
      </trkpt>
      <trkpt lat="45.638001" lon="7.603455">
        <ele>2084.082169</ele>
        <time>2022-11-14T17:53:14.603Z</time>
      </trkpt>
      <trkpt lat="45.637830" lon="7.603674">
        <ele>2082.296426</ele>
        <time>2022-11-14T17:53:48.910Z</time>
      </trkpt>
      <trkpt lat="45.637646" lon="7.603787">
        <ele>2080.984726</ele>
        <time>2022-11-14T17:54:17.923Z</time>
      </trkpt>
      <trkpt lat="45.637425" lon="7.604189">
        <ele>2078.642586</ele>
        <time>2022-11-14T17:55:09.516Z</time>
      </trkpt>
      <trkpt lat="45.637119" lon="7.604326">
        <ele>2076.542231</ele>
        <time>2022-11-14T17:55:54.770Z</time>
      </trkpt>
      <trkpt lat="45.636892" lon="7.604347">
        <ele>2075.052172</ele>
        <time>2022-11-14T17:56:20.062Z</time>
      </trkpt>
      <trkpt lat="45.636629" lon="7.604242">
        <ele>2073.263539</ele>
        <time>2022-11-14T17:56:56.951Z</time>
      </trkpt>
      <trkpt lat="45.636597" lon="7.604073">
        <ele>2072.461619</ele>
        <time>2022-11-14T17:57:13.556Z</time>
      </trkpt>
      <trkpt lat="45.636829" lon="7.603478">
        <ele>2071.467730</ele>
        <time>2022-11-14T17:58:17.040Z</time>
      </trkpt>
      <trkpt lat="45.636902" lon="7.602905">
        <ele>2071.142519</ele>
        <time>2022-11-14T17:59:10.687Z</time>
      </trkpt>
      <trkpt lat="45.637098" lon="7.602520">
        <ele>2070.876604</ele>
        <time>2022-11-14T17:59:52.386Z</time>
      </trkpt>
      <trkpt lat="45.637100" lon="7.602412">
        <ele>2070.816279</ele>
        <time>2022-11-14T18:00:02.188Z</time>
      </trkpt>
      <trkpt lat="45.636938" lon="7.602323">
        <ele>2070.677694</ele>
        <time>2022-11-14T18:00:24.757Z</time>
      </trkpt>
      <trkpt lat="45.636928" lon="7.602198">
        <ele>2070.607443</ele>
        <time>2022-11-14T18:00:36.013Z</time>
      </trkpt>
      <trkpt lat="45.637006" lon="7.601926">
        <ele>2070.443291</ele>
        <time>2022-11-14T18:01:02.572Z</time>
      </trkpt>
      <trkpt lat="45.637018" lon="7.601678">
        <ele>2070.462833</ele>
        <time>2022-11-14T18:01:24.402Z</time>
      </trkpt>
      <trkpt lat="45.637184" lon="7.601367">
        <ele>2071.808663</ele>
        <time>2022-11-14T18:02:01.243Z</time>
      </trkpt>
      <trkpt lat="45.637095" lon="7.601229">
        <ele>2072.454434</ele>
        <time>2022-11-14T18:02:20.754Z</time>
      </trkpt>
      <trkpt lat="45.637044" lon="7.600946">
        <ele>2073.459686</ele>
        <time>2022-11-14T18:02:49.276Z</time>
      </trkpt>
      <trkpt lat="45.636987" lon="7.600918">
        <ele>2073.756177</ele>
        <time>2022-11-14T18:02:58.969Z</time>
      </trkpt>
      <trkpt lat="45.636967" lon="7.600810">
        <ele>2074.140475</ele>
        <time>2022-11-14T18:03:10.961Z</time>
      </trkpt>
      <trkpt lat="45.636756" lon="7.600722">
        <ele>2075.221722</ele>
        <time>2022-11-14T18:03:42.312Z</time>
      </trkpt>
      <trkpt lat="45.636661" lon="7.600507">
        <ele>2076.096560</ele>
        <time>2022-11-14T18:04:10.105Z</time>
      </trkpt>
      <trkpt lat="45.636551" lon="7.600583">
        <ele>2076.697541</ele>
        <time>2022-11-14T18:04:26.863Z</time>
      </trkpt>
      <trkpt lat="45.636190" lon="7.600581">
        <ele>2078.473491</ele>
        <time>2022-11-14T18:05:21.931Z</time>
      </trkpt>
      <trkpt lat="45.636033" lon="7.600458">
        <ele>2079.466664</ele>
        <time>2022-11-14T18:05:51.925Z</time>
      </trkpt>
      <trkpt lat="45.635739" lon="7.600036">
        <ele>2082.802973</ele>
        <time>2022-11-14T18:06:57.166Z</time>
      </trkpt>
      <trkpt lat="45.635806" lon="7.599283">
        <ele>2087.054153</ele>
        <time>2022-11-14T18:08:21.785Z</time>
      </trkpt>
      <trkpt lat="45.635857" lon="7.599245">
        <ele>2087.514760</ele>
        <time>2022-11-14T18:08:31.714Z</time>
      </trkpt>
      <trkpt lat="45.635872" lon="7.599100">
        <ele>2088.335670</ele>
        <time>2022-11-14T18:08:48.899Z</time>
      </trkpt>
      <trkpt lat="45.635809" lon="7.598680">
        <ele>2090.741392</ele>
        <time>2022-11-14T18:09:38.522Z</time>
      </trkpt>
      <trkpt lat="45.635780" lon="7.597839">
        <ele>2095.241689</ele>
        <time>2022-11-14T18:11:09.968Z</time>
      </trkpt>
      <trkpt lat="45.635587" lon="7.597441">
        <ele>2097.642694</ele>
        <time>2022-11-14T18:12:02.019Z</time>
      </trkpt>
      <trkpt lat="45.635202" lon="7.596905">
        <ele>2101.451925</ele>
        <time>2022-11-14T18:13:24.139Z</time>
      </trkpt>
      <trkpt lat="45.635223" lon="7.596461">
        <ele>2103.657968</ele>
        <time>2022-11-14T18:14:11.264Z</time>
      </trkpt>
      <trkpt lat="45.634938" lon="7.595920">
        <ele>2107.518596</ele>
        <time>2022-11-14T18:15:22.294Z</time>
      </trkpt>
      <trkpt lat="45.634846" lon="7.595656">
        <ele>2110.057999</ele>
        <time>2022-11-14T18:15:57.112Z</time>
      </trkpt>
      <trkpt lat="45.634483" lon="7.595263">
        <ele>2115.663517</ele>
        <time>2022-11-14T18:17:18.241Z</time>
      </trkpt>
      <trkpt lat="45.634330" lon="7.595185">
        <ele>2117.663386</ele>
        <time>2022-11-14T18:17:49.724Z</time>
      </trkpt>
      <trkpt lat="45.634052" lon="7.594902">
        <ele>2121.864738</ele>
        <time>2022-11-14T18:18:57.114Z</time>
      </trkpt>
      <trkpt lat="45.633805" lon="7.594856">
        <ele>2124.931518</ele>
        <time>2022-11-14T18:19:46.292Z</time>
      </trkpt>
      <trkpt lat="45.633162" lon="7.594720">
        <ele>2134.432572</ele>
        <time>2022-11-14T18:21:57.773Z</time>
      </trkpt>
      <trkpt lat="45.633087" lon="7.594678">
        <ele>2135.757691</ele>
        <time>2022-11-14T18:22:13.554Z</time>
      </trkpt>
      <trkpt lat="45.633049" lon="7.594567">
        <ele>2137.179460</ele>
        <time>2022-11-14T18:22:31.694Z</time>
      </trkpt>
      <trkpt lat="45.633006" lon="7.594362">
        <ele>2139.641603</ele>
        <time>2022-11-14T18:23:03.495Z</time>
      </trkpt>
      <trkpt lat="45.633054" lon="7.593964">
        <ele>2144.287801</ele>
        <time>2022-11-14T18:24:05.315Z</time>
      </trkpt>
      <trkpt lat="45.633011" lon="7.593423">
        <ele>2150.551548</ele>
        <time>2022-11-14T18:25:34.553Z</time>
      </trkpt>
      <trkpt lat="45.633068" lon="7.593031">
        <ele>2155.157590</ele>
        <time>2022-11-14T18:26:39.711Z</time>
      </trkpt>
      <trkpt lat="45.633172" lon="7.592898">
        <ele>2157.452913</ele>
        <time>2022-11-14T18:27:10.309Z</time>
      </trkpt>
      <trkpt lat="45.633254" lon="7.592561">
        <ele>2161.982508</ele>
        <time>2022-11-14T18:28:03.803Z</time>
      </trkpt>
      <trkpt lat="45.633530" lon="7.592202">
        <ele>2168.867829</ele>
        <time>2022-11-14T18:29:22.073Z</time>
      </trkpt>
      <trkpt lat="45.633537" lon="7.591949">
        <ele>2172.135264</ele>
        <time>2022-11-14T18:30:00.792Z</time>
      </trkpt>
      <trkpt lat="45.633440" lon="7.591588">
        <ele>2177.125961</ele>
        <time>2022-11-14T18:31:01.871Z</time>
      </trkpt>
      <trkpt lat="45.633403" lon="7.591602">
        <ele>2177.832297</ele>
        <time>2022-11-14T18:31:10.340Z</time>
      </trkpt>
      <trkpt lat="45.633283" lon="7.591398">
        <ele>2181.272486</ele>
        <time>2022-11-14T18:31:55.077Z</time>
      </trkpt>
      <trkpt lat="45.633220" lon="7.590588">
        <ele>2191.866996</ele>
        <time>2022-11-14T18:34:15.326Z</time>
      </trkpt>
      <trkpt lat="45.633118" lon="7.590564">
        <ele>2194.054756</ele>
        <time>2022-11-14T18:34:41.609Z</time>
      </trkpt>
      <trkpt lat="45.632970" lon="7.590020">
        <ele>2202.693296</ele>
        <time>2022-11-14T18:36:32.886Z</time>
      </trkpt>
      <trkpt lat="45.632705" lon="7.589591">
        <ele>2211.164562</ele>
        <time>2022-11-14T18:38:21.050Z</time>
      </trkpt>
      <trkpt lat="45.632680" lon="7.589249">
        <ele>2216.253437</ele>
        <time>2022-11-14T18:39:25.028Z</time>
      </trkpt>
      <trkpt lat="45.632346" lon="7.588710">
        <ele>2226.911600</ele>
        <time>2022-11-14T18:41:30.882Z</time>
      </trkpt>
      <trkpt lat="45.632276" lon="7.588512">
        <ele>2229.744883</ele>
        <time>2022-11-14T18:42:08.372Z</time>
      </trkpt>
      <trkpt lat="45.632140" lon="7.588318">
        <ele>2231.693753</ele>
        <time>2022-11-14T18:42:50.305Z</time>
      </trkpt>
      <trkpt lat="45.632137" lon="7.588238">
        <ele>2232.262122</ele>
        <time>2022-11-14T18:43:02.489Z</time>
      </trkpt>
      <trkpt lat="45.631907" lon="7.587942">
        <ele>2235.401383</ele>
        <time>2022-11-14T18:44:05.650Z</time>
      </trkpt>
      <trkpt lat="45.631875" lon="7.587662">
        <ele>2237.414186</ele>
        <time>2022-11-14T18:44:43.613Z</time>
      </trkpt>
      <trkpt lat="45.631632" lon="7.587275">
        <ele>2241.104198</ele>
        <time>2022-11-14T18:45:45.180Z</time>
      </trkpt>
      <trkpt lat="45.631697" lon="7.587170">
        <ele>2242.099084</ele>
        <time>2022-11-14T18:45:59.875Z</time>
      </trkpt>
      <trkpt lat="45.631671" lon="7.587047">
        <ele>2243.010704</ele>
        <time>2022-11-14T18:46:13.709Z</time>
      </trkpt>
      <trkpt lat="45.631613" lon="7.587019">
        <ele>2243.631773</ele>
        <time>2022-11-14T18:46:23.135Z</time>
      </trkpt>
      <trkpt lat="45.631672" lon="7.586888">
        <ele>2244.737238</ele>
        <time>2022-11-14T18:46:39.225Z</time>
      </trkpt>
      <trkpt lat="45.631584" lon="7.586810">
        <ele>2245.787633</ele>
        <time>2022-11-14T18:46:52.829Z</time>
      </trkpt>
      <trkpt lat="45.631490" lon="7.586537">
        <ele>2247.423434</ele>
        <time>2022-11-14T18:47:20.574Z</time>
      </trkpt>
      <trkpt lat="45.631491" lon="7.585868">
        <ele>2245.420698</ele>
        <time>2022-11-14T18:48:21.760Z</time>
      </trkpt>
      <trkpt lat="45.631308" lon="7.585503">
        <ele>2244.076190</ele>
        <time>2022-11-14T18:49:04.737Z</time>
      </trkpt>
      <trkpt lat="45.631300" lon="7.584932">
        <ele>2242.366485</ele>
        <time>2022-11-14T18:50:00.934Z</time>
      </trkpt>
      <trkpt lat="45.631431" lon="7.584589">
        <ele>2241.196500</ele>
        <time>2022-11-14T18:50:39.238Z</time>
      </trkpt>
      <trkpt lat="45.631355" lon="7.584409">
        <ele>2240.567039</ele>
        <time>2022-11-14T18:50:59.909Z</time>
      </trkpt>
      <trkpt lat="45.631389" lon="7.584152">
        <ele>2239.752112</ele>
        <time>2022-11-14T18:51:26.610Z</time>
      </trkpt>
      <trkpt lat="45.631327" lon="7.583900">
        <ele>2238.682342</ele>
        <time>2022-11-14T18:51:53.990Z</time>
      </trkpt>
      <trkpt lat="45.631352" lon="7.583808">
        <ele>2238.287089</ele>
        <time>2022-11-14T18:52:04.426Z</time>
      </trkpt>
      <trkpt lat="45.631183" lon="7.583116">
        <ele>2235.351839</ele>
        <time>2022-11-14T18:53:18.382Z</time>
      </trkpt>
      <trkpt lat="45.631226" lon="7.582622">
        <ele>2233.358350</ele>
        <time>2022-11-14T18:54:07.144Z</time>
      </trkpt>
      <trkpt lat="45.631162" lon="7.582408">
        <ele>2232.426303</ele>
        <time>2022-11-14T18:54:29.298Z</time>
      </trkpt>
      <trkpt lat="45.630821" lon="7.581955">
        <ele>2229.760945</ele>
        <time>2022-11-14T18:55:32.692Z</time>
      </trkpt>
      <trkpt lat="45.630561" lon="7.581601">
        <ele>2230.172951</ele>
        <time>2022-11-14T18:56:19.380Z</time>
      </trkpt>
      <trkpt lat="45.630135" lon="7.580867">
        <ele>2231.385420</ele>
        <time>2022-11-14T18:57:43.282Z</time>
      </trkpt>
      <trkpt lat="45.629939" lon="7.580330">
        <ele>2232.155389</ele>
        <time>2022-11-14T18:58:41.967Z</time>
      </trkpt>
      <trkpt lat="45.629481" lon="7.580310">
        <ele>2233.393815</ele>
        <time>2022-11-14T18:59:54.419Z</time>
      </trkpt>
      <trkpt lat="45.629162" lon="7.580578">
        <ele>2236.007206</ele>
        <time>2022-11-14T19:00:51.946Z</time>
      </trkpt>
      <trkpt lat="45.629020" lon="7.580600">
        <ele>2237.016111</ele>
        <time>2022-11-14T19:01:14.704Z</time>
      </trkpt>
      <trkpt lat="45.628713" lon="7.580327">
        <ele>2239.569742</ele>
        <time>2022-11-14T19:02:11.187Z</time>
      </trkpt>
      <trkpt lat="45.628368" lon="7.580158">
        <ele>2242.145713</ele>
        <time>2022-11-14T19:03:09.360Z</time>
      </trkpt>
      <trkpt lat="45.628234" lon="7.579676">
        <ele>2244.707878</ele>
        <time>2022-11-14T19:04:06.946Z</time>
      </trkpt>
      <trkpt lat="45.628217" lon="7.579383">
        <ele>2245.723122</ele>
        <time>2022-11-14T19:04:37.914Z</time>
      </trkpt>
      <trkpt lat="45.628106" lon="7.579134">
        <ele>2246.132291</ele>
        <time>2022-11-14T19:05:09.024Z</time>
      </trkpt>
      <trkpt lat="45.628144" lon="7.578676">
        <ele>2246.771372</ele>
        <time>2022-11-14T19:05:54.526Z</time>
      </trkpt>
      <trkpt lat="45.628121" lon="7.578277">
        <ele>2247.326124</ele>
        <time>2022-11-14T19:06:31.316Z</time>
      </trkpt>
      <trkpt lat="45.628023" lon="7.578042">
        <ele>2247.705256</ele>
        <time>2022-11-14T19:06:57.814Z</time>
      </trkpt>
      <trkpt lat="45.627799" lon="7.577597">
        <ele>2248.465005</ele>
        <time>2022-11-14T19:07:46.418Z</time>
      </trkpt>
      <trkpt lat="45.627622" lon="7.577582">
        <ele>2248.816338</ele>
        <time>2022-11-14T19:08:09.639Z</time>
      </trkpt>
      <trkpt lat="45.627524" lon="7.577473">
        <ele>2249.062345</ele>
        <time>2022-11-14T19:08:25.703Z</time>
      </trkpt>
      <trkpt lat="45.627329" lon="7.577514">
        <ele>2249.177817</ele>
        <time>2022-11-14T19:08:51.977Z</time>
      </trkpt>
      <trkpt lat="45.627237" lon="7.577358">
        <ele>2249.229257</ele>
        <time>2022-11-14T19:09:09.909Z</time>
      </trkpt>
      <trkpt lat="45.626868" lon="7.576985">
        <ele>2249.392142</ele>
        <time>2022-11-14T19:10:08.837Z</time>
      </trkpt>
      <trkpt lat="45.626661" lon="7.576930">
        <ele>2249.468033</ele>
        <time>2022-11-14T19:10:37.695Z</time>
      </trkpt>
      <trkpt lat="45.626539" lon="7.576829">
        <ele>2249.518846</ele>
        <time>2022-11-14T19:10:56.886Z</time>
      </trkpt>
      <trkpt lat="45.626391" lon="7.576426">
        <ele>2249.633589</ele>
        <time>2022-11-14T19:11:42.073Z</time>
      </trkpt>
      <trkpt lat="45.626138" lon="7.576043">
        <ele>2249.804077</ele>
        <time>2022-11-14T19:12:35.673Z</time>
      </trkpt>
      <trkpt lat="45.626015" lon="7.575708">
        <ele>2252.438042</ele>
        <time>2022-11-14T19:13:17.388Z</time>
      </trkpt>
      <trkpt lat="45.625917" lon="7.575670">
        <ele>2253.448801</ele>
        <time>2022-11-14T19:13:30.294Z</time>
      </trkpt>
      <trkpt lat="45.625764" lon="7.575424">
        <ele>2255.740598</ele>
        <time>2022-11-14T19:14:07.028Z</time>
      </trkpt>
      <trkpt lat="45.625568" lon="7.575401">
        <ele>2257.698213</ele>
        <time>2022-11-14T19:14:34.384Z</time>
      </trkpt>
      <trkpt lat="45.625444" lon="7.575217">
        <ele>2259.477078</ele>
        <time>2022-11-14T19:15:15.989Z</time>
      </trkpt>
      <trkpt lat="45.625182" lon="7.574494">
        <ele>2265.145859</ele>
        <time>2022-11-14T19:16:52.125Z</time>
      </trkpt>
      <trkpt lat="45.625091" lon="7.574129">
        <ele>2267.990814</ele>
        <time>2022-11-14T19:17:43.881Z</time>
      </trkpt>
      <trkpt lat="45.625135" lon="7.573585">
        <ele>2275.028705</ele>
        <time>2022-11-14T19:19:04.071Z</time>
      </trkpt>
      <trkpt lat="45.625055" lon="7.573409">
        <ele>2277.726371</ele>
        <time>2022-11-14T19:19:46.258Z</time>
      </trkpt>
      <trkpt lat="45.625021" lon="7.573145">
        <ele>2281.176257</ele>
        <time>2022-11-14T19:20:27.512Z</time>
      </trkpt>
      <trkpt lat="45.624927" lon="7.572989">
        <ele>2283.822642</ele>
        <time>2022-11-14T19:20:59.944Z</time>
      </trkpt>
      <trkpt lat="45.624601" lon="7.572903">
        <ele>2289.914496</ele>
        <time>2022-11-14T19:22:12.337Z</time>
      </trkpt>
      <trkpt lat="45.624267" lon="7.572943">
        <ele>2296.073750</ele>
        <time>2022-11-14T19:23:31.524Z</time>
      </trkpt>
      <trkpt lat="45.623752" lon="7.572880">
        <ele>2306.920810</ele>
        <time>2022-11-14T19:25:55.922Z</time>
      </trkpt>
      <trkpt lat="45.623417" lon="7.572613">
        <ele>2315.928411</ele>
        <time>2022-11-14T19:27:38.942Z</time>
      </trkpt>
      <trkpt lat="45.623025" lon="7.572168">
        <ele>2327.683763</ele>
        <time>2022-11-14T19:30:00.292Z</time>
      </trkpt>
      <trkpt lat="45.622654" lon="7.571932">
        <ele>2337.220522</ele>
        <time>2022-11-14T19:31:56.368Z</time>
      </trkpt>
      <trkpt lat="45.622523" lon="7.571648">
        <ele>2342.808682</ele>
        <time>2022-11-14T19:33:01.580Z</time>
      </trkpt>
      <trkpt lat="45.622228" lon="7.570699">
        <ele>2355.147108</ele>
        <time>2022-11-14T19:35:59.445Z</time>
      </trkpt>
      <trkpt lat="45.622161" lon="7.570669">
        <ele>2356.335547</ele>
        <time>2022-11-14T19:36:15.076Z</time>
      </trkpt>
      <trkpt lat="45.622042" lon="7.570237">
        <ele>2361.832275</ele>
        <time>2022-11-14T19:37:29.938Z</time>
      </trkpt>
      <trkpt lat="45.621988" lon="7.570275">
        <ele>2362.851056</ele>
        <time>2022-11-14T19:37:42.267Z</time>
      </trkpt>
      <trkpt lat="45.621831" lon="7.570009">
        <ele>2366.971697</ele>
        <time>2022-11-14T19:38:38.021Z</time>
      </trkpt>
      <trkpt lat="45.621934" lon="7.570033">
        <ele>2368.738208</ele>
        <time>2022-11-14T19:38:56.018Z</time>
      </trkpt>
      <trkpt lat="45.621887" lon="7.569644">
        <ele>2373.411556</ele>
        <time>2022-11-14T19:39:45.556Z</time>
      </trkpt>
      <trkpt lat="45.622030" lon="7.568859">
        <ele>2373.710043</ele>
        <time>2022-11-14T19:41:10.944Z</time>
      </trkpt>
      <trkpt lat="45.622322" lon="7.568219">
        <ele>2373.991216</ele>
        <time>2022-11-14T19:42:27.660Z</time>
      </trkpt>
      <trkpt lat="45.622353" lon="7.568042">
        <ele>2374.058356</ele>
        <time>2022-11-14T19:42:44.664Z</time>
      </trkpt>
      <trkpt lat="45.622257" lon="7.567841">
        <ele>2374.147916</ele>
        <time>2022-11-14T19:43:08.919Z</time>
      </trkpt>
      <trkpt lat="45.622403" lon="7.567522">
        <ele>2374.288194</ele>
        <time>2022-11-14T19:43:49.049Z</time>
      </trkpt>
      <trkpt lat="45.622369" lon="7.567393">
        <ele>2374.338919</ele>
        <time>2022-11-14T19:44:02.003Z</time>
      </trkpt>
      <trkpt lat="45.622483" lon="7.567247">
        <ele>2371.340490</ele>
        <time>2022-11-14T19:44:28.471Z</time>
      </trkpt>
      <trkpt lat="45.622482" lon="7.567132">
        <ele>2369.267273</ele>
        <time>2022-11-14T19:44:43.280Z</time>
      </trkpt>
      <trkpt lat="45.622556" lon="7.567046">
        <ele>2366.809354</ele>
        <time>2022-11-14T19:44:58.210Z</time>
      </trkpt>
      <trkpt lat="45.622515" lon="7.566946">
        <ele>2364.719774</ele>
        <time>2022-11-14T19:45:11.432Z</time>
      </trkpt>
      <trkpt lat="45.622547" lon="7.566847">
        <ele>2362.753763</ele>
        <time>2022-11-14T19:45:27.444Z</time>
      </trkpt>
      <trkpt lat="45.622449" lon="7.566603">
        <ele>2357.681575</ele>
        <time>2022-11-14T19:46:02.761Z</time>
      </trkpt>
      <trkpt lat="45.622408" lon="7.566247">
        <ele>2351.177676</ele>
        <time>2022-11-14T19:46:57.480Z</time>
      </trkpt>
      <trkpt lat="45.622273" lon="7.566120">
        <ele>2347.012457</ele>
        <time>2022-11-14T19:47:29.953Z</time>
      </trkpt>
      <trkpt lat="45.622182" lon="7.565790">
        <ele>2340.617952</ele>
        <time>2022-11-14T19:48:27.334Z</time>
      </trkpt>
      <trkpt lat="45.622068" lon="7.565044">
        <ele>2326.386752</ele>
        <time>2022-11-14T19:50:48.108Z</time>
      </trkpt>
      <trkpt lat="45.621938" lon="7.564624">
        <ele>2314.737682</ele>
        <time>2022-11-14T19:52:11.705Z</time>
      </trkpt>
      <trkpt lat="45.621554" lon="7.563809">
        <ele>2289.813565</ele>
        <time>2022-11-14T19:55:23.633Z</time>
      </trkpt>
      <trkpt lat="45.621524" lon="7.563639">
        <ele>2285.366675</ele>
        <time>2022-11-14T19:56:02.608Z</time>
      </trkpt>
      <trkpt lat="45.621402" lon="7.563423">
        <ele>2278.324809</ele>
        <time>2022-11-14T19:56:45.112Z</time>
      </trkpt>
      <trkpt lat="45.621153" lon="7.563100">
        <ele>2266.132448</ele>
        <time>2022-11-14T19:58:02.950Z</time>
      </trkpt>
      <trkpt lat="45.621105" lon="7.562838">
        <ele>2260.598471</ele>
        <time>2022-11-14T19:58:49.432Z</time>
      </trkpt>
      <trkpt lat="45.621116" lon="7.562612">
        <ele>2257.040032</ele>
        <time>2022-11-14T19:59:20.150Z</time>
      </trkpt>
      <trkpt lat="45.621022" lon="7.562483">
        <ele>2254.113888</ele>
        <time>2022-11-14T19:59:48.902Z</time>
      </trkpt>
      <trkpt lat="45.620803" lon="7.561924">
        <ele>2244.049789</ele>
        <time>2022-11-14T20:01:28.374Z</time>
      </trkpt>
      <trkpt lat="45.620744" lon="7.561629">
        <ele>2239.230372</ele>
        <time>2022-11-14T20:02:05.513Z</time>
      </trkpt>
      <trkpt lat="45.620626" lon="7.561337">
        <ele>2233.933247</ele>
        <time>2022-11-14T20:02:44.458Z</time>
      </trkpt>
      <trkpt lat="45.620610" lon="7.560961">
        <ele>2228.016322</ele>
        <time>2022-11-14T20:03:26.911Z</time>
      </trkpt>
      <trkpt lat="45.620435" lon="7.560469">
        <ele>2219.769633</ele>
        <time>2022-11-14T20:04:29.952Z</time>
      </trkpt>
      <trkpt lat="45.620514" lon="7.560159">
        <ele>2215.311230</ele>
        <time>2022-11-14T20:05:08.407Z</time>
      </trkpt>
      <trkpt lat="45.620446" lon="7.560017">
        <ele>2212.985728</ele>
        <time>2022-11-14T20:05:28.974Z</time>
      </trkpt>
      <trkpt lat="45.620131" lon="7.559665">
        <ele>2205.261505</ele>
        <time>2022-11-14T20:06:39.199Z</time>
      </trkpt>
      <trkpt lat="45.620275" lon="7.559342">
        <ele>2200.085518</ele>
        <time>2022-11-14T20:07:28.409Z</time>
      </trkpt>
      <trkpt lat="45.620125" lon="7.559114">
        <ele>2195.855730</ele>
        <time>2022-11-14T20:08:10.300Z</time>
      </trkpt>
      <trkpt lat="45.619666" lon="7.559010">
        <ele>2186.702164</ele>
        <time>2022-11-14T20:09:37.578Z</time>
      </trkpt>
      <trkpt lat="45.619440" lon="7.559072">
        <ele>2181.218147</ele>
        <time>2022-11-14T20:10:19.583Z</time>
      </trkpt>
      <trkpt lat="45.619177" lon="7.558873">
        <ele>2174.127059</ele>
        <time>2022-11-14T20:11:11.823Z</time>
      </trkpt>
      <trkpt lat="45.618920" lon="7.558473">
        <ele>2165.073832</ele>
        <time>2022-11-14T20:12:35.051Z</time>
      </trkpt>
      <trkpt lat="45.618656" lon="7.558246">
        <ele>2157.732383</ele>
        <time>2022-11-14T20:13:44.298Z</time>
      </trkpt>
      <trkpt lat="45.618485" lon="7.558533">
        <ele>2151.448251</ele>
        <time>2022-11-14T20:14:37.801Z</time>
      </trkpt>
      <trkpt lat="45.618196" lon="7.558636">
        <ele>2144.464995</ele>
        <time>2022-11-14T20:15:37.169Z</time>
      </trkpt>
      <trkpt lat="45.618097" lon="7.559084">
        <ele>2138.811548</ele>
        <time>2022-11-14T20:16:38.148Z</time>
      </trkpt>
      <trkpt lat="45.617981" lon="7.559350">
        <ele>2135.039592</ele>
        <time>2022-11-14T20:17:24.727Z</time>
      </trkpt>
      <trkpt lat="45.617749" lon="7.558746">
        <ele>2126.747793</ele>
        <time>2022-11-14T20:18:25.581Z</time>
      </trkpt>
      <trkpt lat="45.617843" lon="7.558217">
        <ele>2120.180079</ele>
        <time>2022-11-14T20:19:14.429Z</time>
      </trkpt>
      <trkpt lat="45.617586" lon="7.557225">
        <ele>2111.300803</ele>
        <time>2022-11-14T20:20:50.436Z</time>
      </trkpt>
      <trkpt lat="45.617597" lon="7.557021">
        <ele>2110.327258</ele>
        <time>2022-11-14T20:21:06.718Z</time>
      </trkpt>
      <trkpt lat="45.617360" lon="7.556638">
        <ele>2107.894062</ele>
        <time>2022-11-14T20:21:45.818Z</time>
      </trkpt>
      <trkpt lat="45.617172" lon="7.555873">
        <ele>2104.035908</ele>
        <time>2022-11-14T20:22:47.597Z</time>
      </trkpt>
      <trkpt lat="45.617131" lon="7.555737">
        <ele>2103.331245</ele>
        <time>2022-11-14T20:22:58.884Z</time>
      </trkpt>
      <trkpt lat="45.617046" lon="7.555678">
        <ele>2102.688463</ele>
        <time>2022-11-14T20:23:08.312Z</time>
      </trkpt>
      <trkpt lat="45.616994" lon="7.555724">
        <ele>2102.272479</ele>
        <time>2022-11-14T20:23:15.334Z</time>
      </trkpt>
      <trkpt lat="45.616934" lon="7.555964">
        <ele>2101.662827</ele>
        <time>2022-11-14T20:23:34.034Z</time>
      </trkpt>
      <trkpt lat="45.616880" lon="7.555983">
        <ele>2101.720400</ele>
        <time>2022-11-14T20:23:39.713Z</time>
      </trkpt>
      <trkpt lat="45.616649" lon="7.555645">
        <ele>2102.062594</ele>
        <time>2022-11-14T20:24:13.910Z</time>
      </trkpt>
      <trkpt lat="45.616539" lon="7.555625">
        <ele>2102.177392</ele>
        <time>2022-11-14T20:24:25.360Z</time>
      </trkpt>
      <trkpt lat="45.616481" lon="7.555677">
        <ele>2102.248268</ele>
        <time>2022-11-14T20:24:33.481Z</time>
      </trkpt>
      <trkpt lat="45.616417" lon="7.555386">
        <ele>2102.469161</ele>
        <time>2022-11-14T20:24:56.149Z</time>
      </trkpt>
      <trkpt lat="45.616563" lon="7.555075">
        <ele>2102.740387</ele>
        <time>2022-11-14T20:25:22.676Z</time>
      </trkpt>
      <trkpt lat="45.616641" lon="7.554570">
        <ele>2103.114882</ele>
        <time>2022-11-14T20:26:01.946Z</time>
      </trkpt>
      <trkpt lat="45.616613" lon="7.554341">
        <ele>2103.283222</ele>
        <time>2022-11-14T20:26:21.744Z</time>
      </trkpt>
      <trkpt lat="45.616580" lon="7.554304">
        <ele>2103.326639</ele>
        <time>2022-11-14T20:26:26.164Z</time>
      </trkpt>
      <trkpt lat="45.616530" lon="7.554264">
        <ele>2103.385956</ele>
        <time>2022-11-14T20:26:31.910Z</time>
      </trkpt>
      <trkpt lat="45.616398" lon="7.554114">
        <ele>2104.617210</ele>
        <time>2022-11-14T20:26:54.096Z</time>
      </trkpt>
      <trkpt lat="45.616324" lon="7.553847">
        <ele>2106.731796</ele>
        <time>2022-11-14T20:27:15.986Z</time>
      </trkpt>
      <trkpt lat="45.616112" lon="7.553967">
        <ele>2109.131955</ele>
        <time>2022-11-14T20:27:51.980Z</time>
      </trkpt>
      <trkpt lat="45.616054" lon="7.553694">
        <ele>2111.232702</ele>
        <time>2022-11-14T20:28:18.293Z</time>
      </trkpt>
      <trkpt lat="45.615654" lon="7.553316">
        <ele>2116.280003</ele>
        <time>2022-11-14T20:29:26.150Z</time>
      </trkpt>
      <trkpt lat="45.615451" lon="7.553060">
        <ele>2119.129419</ele>
        <time>2022-11-14T20:30:03.097Z</time>
      </trkpt>
      <trkpt lat="45.615176" lon="7.553078">
        <ele>2122.027237</ele>
        <time>2022-11-14T20:30:41.976Z</time>
      </trkpt>
      <trkpt lat="45.615130" lon="7.553144">
        <ele>2122.956907</ele>
        <time>2022-11-14T20:30:53.153Z</time>
      </trkpt>
      <trkpt lat="45.614934" lon="7.553202">
        <ele>2126.598122</ele>
        <time>2022-11-14T20:31:35.759Z</time>
      </trkpt>
      <trkpt lat="45.614783" lon="7.553137">
        <ele>2129.466937</ele>
        <time>2022-11-14T20:32:07.527Z</time>
      </trkpt>
      <trkpt lat="45.614150" lon="7.553077">
        <ele>2141.007760</ele>
        <time>2022-11-14T20:34:33.032Z</time>
      </trkpt>
      <trkpt lat="45.613871" lon="7.552857">
        <ele>2146.804201</ele>
        <time>2022-11-14T20:35:54.339Z</time>
      </trkpt>
      <trkpt lat="45.613475" lon="7.552784">
        <ele>2154.067881</ele>
        <time>2022-11-14T20:37:40.760Z</time>
      </trkpt>
      <trkpt lat="45.612877" lon="7.552337">
        <ele>2165.794703</ele>
        <time>2022-11-14T20:40:20.325Z</time>
      </trkpt>
      <trkpt lat="45.612310" lon="7.552127">
        <ele>2175.929547</ele>
        <time>2022-11-14T20:42:35.921Z</time>
      </trkpt>
      <trkpt lat="45.612111" lon="7.551797">
        <ele>2181.203131</ele>
        <time>2022-11-14T20:43:27.450Z</time>
      </trkpt>
      <trkpt lat="45.612235" lon="7.551671">
        <ele>2183.835520</ele>
        <time>2022-11-14T20:43:50.722Z</time>
      </trkpt>
      <trkpt lat="45.612055" lon="7.551136">
        <ele>2189.046329</ele>
        <time>2022-11-14T20:44:52.737Z</time>
      </trkpt>
      <trkpt lat="45.612106" lon="7.551103">
        <ele>2189.616391</ele>
        <time>2022-11-14T20:45:00.953Z</time>
      </trkpt>
      <trkpt lat="45.612321" lon="7.551315">
        <ele>2192.276059</ele>
        <time>2022-11-14T20:45:36.988Z</time>
      </trkpt>
      <trkpt lat="45.612553" lon="7.551282">
        <ele>2194.650213</ele>
        <time>2022-11-14T20:46:07.790Z</time>
      </trkpt>
      <trkpt lat="45.612751" lon="7.550995">
        <ele>2197.521567</ele>
        <time>2022-11-14T20:46:42.695Z</time>
      </trkpt>
      <trkpt lat="45.612908" lon="7.550544">
        <ele>2201.109937</ele>
        <time>2022-11-14T20:47:26.437Z</time>
      </trkpt>
      <trkpt lat="45.613025" lon="7.549215">
        <ele>2211.484888</ele>
        <time>2022-11-14T20:49:32.493Z</time>
      </trkpt>
      <trkpt lat="45.613327" lon="7.548225">
        <ele>2220.227218</ele>
        <time>2022-11-14T20:51:25.056Z</time>
      </trkpt>
      <trkpt lat="45.613524" lon="7.547655">
        <ele>2225.371717</ele>
        <time>2022-11-14T20:52:31.147Z</time>
      </trkpt>
      <trkpt lat="45.613812" lon="7.546539">
        <ele>2234.246414</ele>
        <time>2022-11-14T20:54:24.590Z</time>
      </trkpt>
      <trkpt lat="45.613872" lon="7.546010">
        <ele>2238.244656</ele>
        <time>2022-11-14T20:55:14.013Z</time>
      </trkpt>
      <trkpt lat="45.613877" lon="7.545426">
        <ele>2242.602011</ele>
        <time>2022-11-14T20:56:08.239Z</time>
      </trkpt>
      <trkpt lat="45.613941" lon="7.545023">
        <ele>2246.029140</ele>
        <time>2022-11-14T20:56:47.062Z</time>
      </trkpt>
      <trkpt lat="45.614126" lon="7.544716">
        <ele>2249.956603</ele>
        <time>2022-11-14T20:57:25.653Z</time>
      </trkpt>
      <trkpt lat="45.614387" lon="7.544428">
        <ele>2254.525065</ele>
        <time>2022-11-14T20:58:12.860Z</time>
      </trkpt>
      <trkpt lat="45.614694" lon="7.544142">
        <ele>2259.602409</ele>
        <time>2022-11-14T20:59:08.805Z</time>
      </trkpt>
      <trkpt lat="45.614834" lon="7.543905">
        <ele>2262.609000</ele>
        <time>2022-11-14T20:59:43.901Z</time>
      </trkpt>
      <trkpt lat="45.614798" lon="7.542825">
        <ele>2274.111525</ele>
        <time>2022-11-14T21:01:59.435Z</time>
      </trkpt>
      <trkpt lat="45.614616" lon="7.541277">
        <ele>2293.612714</ele>
        <time>2022-11-14T21:05:32.258Z</time>
      </trkpt>
      <trkpt lat="45.614151" lon="7.539177">
        <ele>2315.211107</ele>
        <time>2022-11-14T21:09:42.357Z</time>
      </trkpt>
      <trkpt lat="45.614202" lon="7.538886">
        <ele>2317.840089</ele>
        <time>2022-11-14T21:10:10.505Z</time>
      </trkpt>
      <trkpt lat="45.614188" lon="7.538428">
        <ele>2321.857564</ele>
        <time>2022-11-14T21:10:52.667Z</time>
      </trkpt>
      <trkpt lat="45.614021" lon="7.538071">
        <ele>2324.705698</ele>
        <time>2022-11-14T21:11:31.165Z</time>
      </trkpt>
      <trkpt lat="45.613979" lon="7.537362">
        <ele>2327.550826</ele>
        <time>2022-11-14T21:12:31.966Z</time>
      </trkpt>
      <trkpt lat="45.613760" lon="7.536658">
        <ele>2330.631642</ele>
        <time>2022-11-14T21:13:35.136Z</time>
      </trkpt>
      <trkpt lat="45.613752" lon="7.536589">
        <ele>2330.911308</ele>
        <time>2022-11-14T21:13:40.811Z</time>
      </trkpt>
      <trkpt lat="45.613896" lon="7.536357">
        <ele>2332.151537</ele>
        <time>2022-11-14T21:14:05.597Z</time>
      </trkpt>
      <trkpt lat="45.613903" lon="7.536136">
        <ele>2333.036126</ele>
        <time>2022-11-14T21:14:23.613Z</time>
      </trkpt>
      <trkpt lat="45.613760" lon="7.535700">
        <ele>2334.893321</ele>
        <time>2022-11-14T21:15:02.012Z</time>
      </trkpt>
      <trkpt lat="45.613261" lon="7.535290">
        <ele>2337.880646</ele>
        <time>2022-11-14T21:16:09.149Z</time>
      </trkpt>
      <trkpt lat="45.612611" lon="7.533639">
        <ele>2345.722498</ele>
        <time>2022-11-14T21:18:46.177Z</time>
      </trkpt>
      <trkpt lat="45.612609" lon="7.533408">
        <ele>2347.232208</ele>
        <time>2022-11-14T21:19:06.806Z</time>
      </trkpt>
      <trkpt lat="45.612563" lon="7.532747">
        <ele>2351.573195</ele>
        <time>2022-11-14T21:20:05.315Z</time>
      </trkpt>
      <trkpt lat="45.612258" lon="7.532171">
        <ele>2356.294250</ele>
        <time>2022-11-14T21:21:14.630Z</time>
      </trkpt>
      <trkpt lat="45.612202" lon="7.531951">
        <ele>2357.824199</ele>
        <time>2022-11-14T21:21:40.683Z</time>
      </trkpt>
      <trkpt lat="45.612158" lon="7.531624">
        <ele>2360.000350</ele>
        <time>2022-11-14T21:22:12.999Z</time>
      </trkpt>
      <trkpt lat="45.611887" lon="7.531333">
        <ele>2363.885423</ele>
        <time>2022-11-14T21:23:00.313Z</time>
      </trkpt>
      <trkpt lat="45.611432" lon="7.530818">
        <ele>2370.694659</ele>
        <time>2022-11-14T21:24:22.900Z</time>
      </trkpt>
      <trkpt lat="45.611238" lon="7.530362">
        <ele>2375.075093</ele>
        <time>2022-11-14T21:25:16.808Z</time>
      </trkpt>
      <trkpt lat="45.611197" lon="7.530356">
        <ele>2375.558659</ele>
        <time>2022-11-14T21:25:22.501Z</time>
      </trkpt>
      <trkpt lat="45.611080" lon="7.530582">
        <ele>2377.866278</ele>
        <time>2022-11-14T21:25:50.865Z</time>
      </trkpt>
      <trkpt lat="45.611016" lon="7.530620">
        <ele>2378.679383</ele>
        <time>2022-11-14T21:26:01.554Z</time>
      </trkpt>
      <trkpt lat="45.610763" lon="7.530575">
        <ele>2381.626970</ele>
        <time>2022-11-14T21:26:37.671Z</time>
      </trkpt>
      <trkpt lat="45.610191" lon="7.529648">
        <ele>2389.646643</ele>
        <time>2022-11-14T21:28:32.665Z</time>
      </trkpt>
      <trkpt lat="45.609237" lon="7.527596">
        <ele>2405.484743</ele>
        <time>2022-11-14T21:32:12.637Z</time>
      </trkpt>
      <trkpt lat="45.609258" lon="7.527423">
        <ele>2406.601546</ele>
        <time>2022-11-14T21:32:28.598Z</time>
      </trkpt>
      <trkpt lat="45.609400" lon="7.527153">
        <ele>2408.750064</ele>
        <time>2022-11-14T21:32:58.946Z</time>
      </trkpt>
      <trkpt lat="45.609681" lon="7.527057">
        <ele>2411.376934</ele>
        <time>2022-11-14T21:33:36.760Z</time>
      </trkpt>
      <trkpt lat="45.609581" lon="7.526744">
        <ele>2413.565545</ele>
        <time>2022-11-14T21:34:09.198Z</time>
      </trkpt>
      <trkpt lat="45.609535" lon="7.526412">
        <ele>2416.127903</ele>
        <time>2022-11-14T21:34:41.456Z</time>
      </trkpt>
      <trkpt lat="45.609054" lon="7.525520">
        <ele>2425.695083</ele>
        <time>2022-11-14T21:36:36.694Z</time>
      </trkpt>
      <trkpt lat="45.607926" lon="7.524204">
        <ele>2442.670358</ele>
        <time>2022-11-14T21:40:11.238Z</time>
      </trkpt>
      <trkpt lat="45.607786" lon="7.523882">
        <ele>2445.568271</ele>
        <time>2022-11-14T21:40:57.521Z</time>
      </trkpt>
      <trkpt lat="45.607652" lon="7.523402">
        <ele>2449.518624</ele>
        <time>2022-11-14T21:41:58.838Z</time>
      </trkpt>
      <trkpt lat="45.607689" lon="7.522343">
        <ele>2457.465388</ele>
        <time>2022-11-14T21:43:59.756Z</time>
      </trkpt>
      <trkpt lat="45.607326" lon="7.521073">
        <ele>2466.936420</ele>
        <time>2022-11-14T21:46:38.715Z</time>
      </trkpt>
      <trkpt lat="45.607129" lon="7.520064">
        <ele>2474.205703</ele>
        <time>2022-11-14T21:48:42.257Z</time>
      </trkpt>
      <trkpt lat="45.606911" lon="7.519756">
        <ele>2477.495037</ele>
        <time>2022-11-14T21:49:34.391Z</time>
      </trkpt>
      <trkpt lat="45.606909" lon="7.519619">
        <ele>2478.523782</ele>
        <time>2022-11-14T21:49:49.247Z</time>
      </trkpt>
      <trkpt lat="45.606915" lon="7.519562">
        <ele>2478.956524</ele>
        <time>2022-11-14T21:49:59.384Z</time>
      </trkpt>
      <trkpt lat="45.606827" lon="7.519506">
        <ele>2479.990244</ele>
        <time>2022-11-14T21:50:14.954Z</time>
      </trkpt>
      <trkpt lat="45.606817" lon="7.519432">
        <ele>2480.556066</ele>
        <time>2022-11-14T21:50:23.555Z</time>
      </trkpt>
      <trkpt lat="45.607025" lon="7.519415">
        <ele>2482.791847</ele>
        <time>2022-11-14T21:50:58.669Z</time>
      </trkpt>
      <trkpt lat="45.607357" lon="7.519240">
        <ele>2486.589193</ele>
        <time>2022-11-14T21:51:57.394Z</time>
      </trkpt>
      <trkpt lat="45.607658" lon="7.519208">
        <ele>2489.828271</ele>
        <time>2022-11-14T21:52:48.308Z</time>
      </trkpt>
      <trkpt lat="45.607743" lon="7.519112">
        <ele>2490.990799</ele>
        <time>2022-11-14T21:53:10.852Z</time>
      </trkpt>
      <trkpt lat="45.607732" lon="7.518401">
        <ele>2496.888159</ele>
        <time>2022-11-14T21:54:37.125Z</time>
      </trkpt>
      <trkpt lat="45.607792" lon="7.517633">
        <ele>2503.675039</ele>
        <time>2022-11-14T21:56:15.543Z</time>
      </trkpt>
      <trkpt lat="45.607747" lon="7.517356">
        <ele>2506.172522</ele>
        <time>2022-11-14T21:56:50.515Z</time>
      </trkpt>
      <trkpt lat="45.607768" lon="7.517246">
        <ele>2507.173923</ele>
        <time>2022-11-14T21:57:09.143Z</time>
      </trkpt>
      <trkpt lat="45.607674" lon="7.516847">
        <ele>2510.871510</ele>
        <time>2022-11-14T21:58:08.166Z</time>
      </trkpt>
      <trkpt lat="45.607721" lon="7.516662">
        <ele>2512.600095</ele>
        <time>2022-11-14T21:58:40.644Z</time>
      </trkpt>
      <trkpt lat="45.607334" lon="7.515841">
        <ele>2518.599068</ele>
        <time>2022-11-14T22:00:38.383Z</time>
      </trkpt>
      <trkpt lat="45.606994" lon="7.515327">
        <ele>2521.858951</ele>
        <time>2022-11-14T22:01:58.014Z</time>
      </trkpt>
      <trkpt lat="45.606831" lon="7.514771">
        <ele>2524.637073</ele>
        <time>2022-11-14T22:03:00.216Z</time>
      </trkpt>
      <trkpt lat="45.606981" lon="7.514604">
        <ele>2525.889515</ele>
        <time>2022-11-14T22:03:25.218Z</time>
      </trkpt>
      <trkpt lat="45.606982" lon="7.514464">
        <ele>2526.534716</ele>
        <time>2022-11-14T22:03:40.225Z</time>
      </trkpt>
      <trkpt lat="45.606914" lon="7.514348">
        <ele>2527.232147</ele>
        <time>2022-11-14T22:03:55.225Z</time>
      </trkpt>
      <trkpt lat="45.606933" lon="7.514149">
        <ele>2527.628693</ele>
        <time>2022-11-14T22:04:14.241Z</time>
      </trkpt>
      <trkpt lat="45.607198" lon="7.513966">
        <ele>2528.072956</ele>
        <time>2022-11-14T22:04:52.404Z</time>
      </trkpt>
      <trkpt lat="45.607388" lon="7.513894">
        <ele>2528.369676</ele>
        <time>2022-11-14T22:05:17.564Z</time>
      </trkpt>
      <trkpt lat="45.607678" lon="7.514037">
        <ele>2528.832756</ele>
        <time>2022-11-14T22:05:57.600Z</time>
      </trkpt>
      <trkpt lat="45.607896" lon="7.514294">
        <ele>2529.259312</ele>
        <time>2022-11-14T22:06:34.861Z</time>
      </trkpt>
      <trkpt lat="45.607971" lon="7.514314">
        <ele>2529.374481</ele>
        <time>2022-11-14T22:06:45.089Z</time>
      </trkpt>
      <trkpt lat="45.608025" lon="7.514256">
        <ele>2529.476442</ele>
        <time>2022-11-14T22:06:54.558Z</time>
      </trkpt>
      <trkpt lat="45.608110" lon="7.513818">
        <ele>2529.956445</ele>
        <time>2022-11-14T22:07:40.702Z</time>
      </trkpt>
      <trkpt lat="45.608018" lon="7.513710">
        <ele>2530.136151</ele>
        <time>2022-11-14T22:07:58.821Z</time>
      </trkpt>
      <trkpt lat="45.607970" lon="7.513489">
        <ele>2531.651659</ele>
        <time>2022-11-14T22:08:23.227Z</time>
      </trkpt>
      <trkpt lat="45.608213" lon="7.513374">
        <ele>2534.570185</ele>
        <time>2022-11-14T22:09:03.164Z</time>
      </trkpt>
      <trkpt lat="45.608393" lon="7.513212">
        <ele>2536.995401</ele>
        <time>2022-11-14T22:09:36.413Z</time>
      </trkpt>
      <trkpt lat="45.608589" lon="7.512943">
        <ele>2540.093417</ele>
        <time>2022-11-14T22:10:20.111Z</time>
      </trkpt>
      <trkpt lat="45.608638" lon="7.512668">
        <ele>2542.356901</ele>
        <time>2022-11-14T22:11:05.835Z</time>
      </trkpt>
      <trkpt lat="45.608752" lon="7.512412">
        <ele>2544.777406</ele>
        <time>2022-11-14T22:11:49.003Z</time>
      </trkpt>
      <trkpt lat="45.608992" lon="7.512277">
        <ele>2547.718069</ele>
        <time>2022-11-14T22:12:34.637Z</time>
      </trkpt>
      <trkpt lat="45.609090" lon="7.511444">
        <ele>2555.336359</ele>
        <time>2022-11-14T22:14:46.848Z</time>
      </trkpt>
      <trkpt lat="45.609270" lon="7.511354">
        <ele>2558.019812</ele>
        <time>2022-11-14T22:15:23.104Z</time>
      </trkpt>
      <trkpt lat="45.609285" lon="7.511283">
        <ele>2558.749921</ele>
        <time>2022-11-14T22:15:44.154Z</time>
      </trkpt>
      <trkpt lat="45.609102" lon="7.511121">
        <ele>2561.778921</ele>
        <time>2022-11-14T22:16:21.485Z</time>
      </trkpt>
      <trkpt lat="45.608908" lon="7.510746">
        <ele>2566.370262</ele>
        <time>2022-11-14T22:17:24.793Z</time>
      </trkpt>
      <trkpt lat="45.608856" lon="7.510591">
        <ele>2568.062498</ele>
        <time>2022-11-14T22:17:44.220Z</time>
      </trkpt>
      <trkpt lat="45.608832" lon="7.510186">
        <ele>2572.063669</ele>
        <time>2022-11-14T22:18:38.095Z</time>
      </trkpt>
      <trkpt lat="45.608687" lon="7.509572">
        <ele>2577.852014</ele>
        <time>2022-11-14T22:20:04.486Z</time>
      </trkpt>
      <trkpt lat="45.609278" lon="7.510335">
        <ele>2586.341487</ele>
        <time>2022-11-14T22:22:19.280Z</time>
      </trkpt>
      <trkpt lat="45.609349" lon="7.510364">
        <ele>2587.128669</ele>
        <time>2022-11-14T22:22:31.774Z</time>
      </trkpt>
      <trkpt lat="45.609511" lon="7.510256">
        <ele>2589.034233</ele>
        <time>2022-11-14T22:23:02.176Z</time>
      </trkpt>
      <trkpt lat="45.609529" lon="7.510174">
        <ele>2589.675144</ele>
        <time>2022-11-14T22:23:11.069Z</time>
      </trkpt>
      <trkpt lat="45.609343" lon="7.510142">
        <ele>2591.672295</ele>
        <time>2022-11-14T22:23:41.605Z</time>
      </trkpt>
      <trkpt lat="45.609602" lon="7.509926">
        <ele>2594.868875</ele>
        <time>2022-11-14T22:24:28.946Z</time>
      </trkpt>
      <trkpt lat="45.609660" lon="7.509815">
        <ele>2596.155296</ele>
        <time>2022-11-14T22:24:45.218Z</time>
      </trkpt>
      <trkpt lat="45.609528" lon="7.509822">
        <ele>2598.056760</ele>
        <time>2022-11-14T22:25:06.234Z</time>
      </trkpt>
      <trkpt lat="45.609357" lon="7.509671">
        <ele>2600.950108</ele>
        <time>2022-11-14T22:25:46.002Z</time>
      </trkpt>
      <trkpt lat="45.609547" lon="7.509611">
        <ele>2603.751124</ele>
        <time>2022-11-14T22:26:21.597Z</time>
      </trkpt>
      <trkpt lat="45.609727" lon="7.509428">
        <ele>2606.930726</ele>
        <time>2022-11-14T22:27:09.351Z</time>
      </trkpt>
      <trkpt lat="45.609602" lon="7.509415">
        <ele>2608.734873</ele>
        <time>2022-11-14T22:27:31.223Z</time>
      </trkpt>
      <trkpt lat="45.609367" lon="7.509244">
        <ele>2612.530780</ele>
        <time>2022-11-14T22:28:25.182Z</time>
      </trkpt>
      <trkpt lat="45.609429" lon="7.508871">
        <ele>2616.391488</ele>
        <time>2022-11-14T22:29:24.772Z</time>
      </trkpt>
      <trkpt lat="45.609410" lon="7.508738">
        <ele>2617.758446</ele>
        <time>2022-11-14T22:29:45.219Z</time>
      </trkpt>
      <trkpt lat="45.609521" lon="7.508343">
        <ele>2622.476514</ele>
        <time>2022-11-14T22:30:52.810Z</time>
      </trkpt>
      <trkpt lat="45.609455" lon="7.508242">
        <ele>2624.484802</ele>
        <time>2022-11-14T22:31:11.926Z</time>
      </trkpt>
      <trkpt lat="45.609473" lon="7.508179">
        <ele>2625.473638</ele>
        <time>2022-11-14T22:31:23.256Z</time>
      </trkpt>
      <trkpt lat="45.609662" lon="7.508097">
        <ele>2629.576276</ele>
        <time>2022-11-14T22:32:11.485Z</time>
      </trkpt>
      <trkpt lat="45.609926" lon="7.508215">
        <ele>2635.321745</ele>
        <time>2022-11-14T22:33:20.999Z</time>
      </trkpt>
      <trkpt lat="45.609990" lon="7.508176">
        <ele>2636.766864</ele>
        <time>2022-11-14T22:33:39.486Z</time>
      </trkpt>
      <trkpt lat="45.610150" lon="7.507289">
        <ele>2650.076942</ele>
        <time>2022-11-14T22:36:32.488Z</time>
      </trkpt>
      <trkpt lat="45.610134" lon="7.506765">
        <ele>2657.698121</ele>
        <time>2022-11-14T22:38:06.890Z</time>
      </trkpt>
      <trkpt lat="45.610238" lon="7.506166">
        <ele>2666.279117</ele>
        <time>2022-11-14T22:39:51.678Z</time>
      </trkpt>
      <trkpt lat="45.610296" lon="7.504818">
        <ele>2684.981311</ele>
        <time>2022-11-14T22:43:44.874Z</time>
      </trkpt>
      <trkpt lat="45.610498" lon="7.504165">
        <ele>2694.672970</ele>
        <time>2022-11-14T22:45:50.404Z</time>
      </trkpt>
      <trkpt lat="45.610783" lon="7.503729">
        <ele>2700.992098</ele>
        <time>2022-11-14T22:47:15.519Z</time>
      </trkpt>
      <trkpt lat="45.610828" lon="7.503518">
        <ele>2703.328041</ele>
        <time>2022-11-14T22:47:39.904Z</time>
      </trkpt>
      <trkpt lat="45.610883" lon="7.503471">
        <ele>2704.298062</ele>
        <time>2022-11-14T22:47:58.942Z</time>
      </trkpt>
      <trkpt lat="45.610820" lon="7.503268">
        <ele>2706.649809</ele>
        <time>2022-11-14T22:48:31.561Z</time>
      </trkpt>
      <trkpt lat="45.610548" lon="7.502902">
        <ele>2712.304577</ele>
        <time>2022-11-14T22:49:42.667Z</time>
      </trkpt>
      <trkpt lat="45.610495" lon="7.502763">
        <ele>2713.981002</ele>
        <time>2022-11-14T22:49:59.033Z</time>
      </trkpt>
      <trkpt lat="45.610438" lon="7.502423">
        <ele>2717.683442</ele>
        <time>2022-11-14T22:50:57.344Z</time>
      </trkpt>
      <trkpt lat="45.610343" lon="7.502272">
        <ele>2719.834058</ele>
        <time>2022-11-14T22:51:20.187Z</time>
      </trkpt>
      <trkpt lat="45.610318" lon="7.501969">
        <ele>2722.849369</ele>
        <time>2022-11-14T22:52:12.437Z</time>
      </trkpt>
      <trkpt lat="45.610158" lon="7.501721">
        <ele>2725.994015</ele>
        <time>2022-11-14T22:53:01.760Z</time>
      </trkpt>
      <trkpt lat="45.609923" lon="7.500929">
        <ele>2734.012964</ele>
        <time>2022-11-14T22:54:48.891Z</time>
      </trkpt>
      <trkpt lat="45.609908" lon="7.500687">
        <ele>2736.277514</ele>
        <time>2022-11-14T22:55:18.384Z</time>
      </trkpt>
      <trkpt lat="45.609811" lon="7.500477">
        <ele>2738.623169</ele>
        <time>2022-11-14T22:55:50.495Z</time>
      </trkpt>
      <trkpt lat="45.609973" lon="7.500378">
        <ele>2740.970736</ele>
        <time>2022-11-14T22:56:24.722Z</time>
      </trkpt>
      <trkpt lat="45.609738" lon="7.499975">
        <ele>2745.937703</ele>
        <time>2022-11-14T22:57:33.117Z</time>
      </trkpt>
      <trkpt lat="45.609754" lon="7.499396">
        <ele>2751.996044</ele>
        <time>2022-11-14T22:58:51.883Z</time>
      </trkpt>
      <trkpt lat="45.609521" lon="7.498702">
        <ele>2760.044432</ele>
        <time>2022-11-14T23:00:41.140Z</time>
      </trkpt>
      <trkpt lat="45.609524" lon="7.498557">
        <ele>2761.561120</ele>
        <time>2022-11-14T23:01:02.058Z</time>
      </trkpt>
      <trkpt lat="45.609698" lon="7.498384">
        <ele>2764.728884</ele>
        <time>2022-11-14T23:01:44.896Z</time>
      </trkpt>
      <trkpt lat="45.609572" lon="7.498236">
        <ele>2767.166260</ele>
        <time>2022-11-14T23:02:20.343Z</time>
      </trkpt>
      <trkpt lat="45.609294" lon="7.496997">
        <ele>2784.310569</ele>
        <time>2022-11-14T23:05:37.258Z</time>
      </trkpt>
      <trkpt lat="45.609560" lon="7.496541">
        <ele>2793.056948</ele>
        <time>2022-11-14T23:07:16.822Z</time>
      </trkpt>
      <trkpt lat="45.609267" lon="7.496227">
        <ele>2800.768288</ele>
        <time>2022-11-14T23:09:07.247Z</time>
      </trkpt>
      <trkpt lat="45.609022" lon="7.496122">
        <ele>2806.154387</ele>
        <time>2022-11-14T23:10:21.189Z</time>
      </trkpt>
      <trkpt lat="45.609191" lon="7.495938">
        <ele>2810.625986</ele>
        <time>2022-11-14T23:11:19.991Z</time>
      </trkpt>
      <trkpt lat="45.609542" lon="7.495943">
        <ele>2817.995818</ele>
        <time>2022-11-14T23:12:55.132Z</time>
      </trkpt>
      <trkpt lat="45.609366" lon="7.495644">
        <ele>2823.735181</ele>
        <time>2022-11-14T23:14:07.511Z</time>
      </trkpt>
      <trkpt lat="45.609047" lon="7.495381">
        <ele>2831.466880</ele>
        <time>2022-11-14T23:15:39.273Z</time>
      </trkpt>
      <trkpt lat="45.608840" lon="7.495128">
        <ele>2837.184991</ele>
        <time>2022-11-14T23:16:41.898Z</time>
      </trkpt>
      <trkpt lat="45.608827" lon="7.495063">
        <ele>2838.177933</ele>
        <time>2022-11-14T23:16:53.641Z</time>
      </trkpt>
      <trkpt lat="45.608911" lon="7.494913">
        <ele>2841.000024</ele>
        <time>2022-11-14T23:17:23.546Z</time>
      </trkpt>
      <trkpt lat="45.608795" lon="7.494874">
        <ele>2843.501972</ele>
        <time>2022-11-14T23:17:52.107Z</time>
      </trkpt>
      <trkpt lat="45.608625" lon="7.494607">
        <ele>2848.607562</ele>
        <time>2022-11-14T23:18:52.362Z</time>
      </trkpt>
      <trkpt lat="45.608345" lon="7.494880">
        <ele>2854.389357</ele>
        <time>2022-11-14T23:20:18.115Z</time>
      </trkpt>
      <trkpt lat="45.608303" lon="7.494853">
        <ele>2855.174954</ele>
        <time>2022-11-14T23:20:28.628Z</time>
      </trkpt>
      <trkpt lat="45.608381" lon="7.494714">
        <ele>2857.301478</ele>
        <time>2022-11-14T23:20:57.663Z</time>
      </trkpt>
      <trkpt lat="45.608137" lon="7.494802">
        <ele>2861.594310</ele>
        <time>2022-11-14T23:21:50.193Z</time>
      </trkpt>
      <trkpt lat="45.608271" lon="7.494487">
        <ele>2865.993922</ele>
        <time>2022-11-14T23:22:41.908Z</time>
      </trkpt>
      <trkpt lat="45.608022" lon="7.493205">
        <ele>2880.460964</ele>
        <time>2022-11-14T23:26:06.714Z</time>
      </trkpt>
      <trkpt lat="45.607923" lon="7.492954">
        <ele>2882.487408</ele>
        <time>2022-11-14T23:26:51.305Z</time>
      </trkpt>
      <trkpt lat="45.607870" lon="7.492243">
        <ele>2887.515971</ele>
        <time>2022-11-14T23:28:21.845Z</time>
      </trkpt>
      <trkpt lat="45.607725" lon="7.491838">
        <ele>2890.715562</ele>
        <time>2022-11-14T23:29:14.918Z</time>
      </trkpt>
      <trkpt lat="45.607680" lon="7.491525">
        <ele>2892.962813</ele>
        <time>2022-11-14T23:29:57.949Z</time>
      </trkpt>
      <trkpt lat="45.607600" lon="7.491445">
        <ele>2893.944311</ele>
        <time>2022-11-14T23:30:13.859Z</time>
      </trkpt>
      <trkpt lat="45.607470" lon="7.491445">
        <ele>2895.251198</ele>
        <time>2022-11-14T23:30:37.034Z</time>
      </trkpt>
      <trkpt lat="45.607459" lon="7.491394">
        <ele>2895.626530</ele>
        <time>2022-11-14T23:30:43.952Z</time>
      </trkpt>
      <trkpt lat="45.607470" lon="7.491252">
        <ele>2896.399459</ele>
        <time>2022-11-14T23:31:00.419Z</time>
      </trkpt>
      <trkpt lat="45.607577" lon="7.491061">
        <ele>2894.590689</ele>
        <time>2022-11-14T23:31:26.030Z</time>
      </trkpt>
      <trkpt lat="45.607725" lon="7.490923">
        <ele>2892.723562</ele>
        <time>2022-11-14T23:31:52.211Z</time>
      </trkpt>
      <trkpt lat="45.607806" lon="7.490730">
        <ele>2891.059876</ele>
        <time>2022-11-14T23:32:18.183Z</time>
      </trkpt>
      <trkpt lat="45.607766" lon="7.490684">
        <ele>2890.517419</ele>
        <time>2022-11-14T23:32:25.351Z</time>
      </trkpt>
      <trkpt lat="45.607813" lon="7.490611">
        <ele>2889.784060</ele>
        <time>2022-11-14T23:32:35.413Z</time>
      </trkpt>
      <trkpt lat="45.607762" lon="7.490560">
        <ele>2889.126396</ele>
        <time>2022-11-14T23:32:44.715Z</time>
      </trkpt>
      <trkpt lat="45.607815" lon="7.490501">
        <ele>2888.416586</ele>
        <time>2022-11-14T23:32:57.145Z</time>
      </trkpt>
      <trkpt lat="45.607765" lon="7.490477">
        <ele>2887.859273</ele>
        <time>2022-11-14T23:33:09.021Z</time>
      </trkpt>
      <trkpt lat="45.607853" lon="7.490272">
        <ele>2886.081383</ele>
        <time>2022-11-14T23:33:35.381Z</time>
      </trkpt>
      <trkpt lat="45.607845" lon="7.489159">
        <ele>2877.853732</ele>
        <time>2022-11-14T23:35:56.081Z</time>
      </trkpt>
      <trkpt lat="45.607647" lon="7.489168">
        <ele>2873.970843</ele>
        <time>2022-11-14T23:36:33.001Z</time>
      </trkpt>
      <trkpt lat="45.607557" lon="7.488628">
        <ele>2865.676945</ele>
        <time>2022-11-14T23:37:52.427Z</time>
      </trkpt>
      <trkpt lat="45.607622" lon="7.488337">
        <ele>2861.112892</ele>
        <time>2022-11-14T23:38:39.467Z</time>
      </trkpt>
      <trkpt lat="45.607686" lon="7.488055">
        <ele>2856.683390</ele>
        <time>2022-11-14T23:39:24.696Z</time>
      </trkpt>
      <trkpt lat="45.607638" lon="7.487719">
        <ele>2851.559649</ele>
        <time>2022-11-14T23:40:15.138Z</time>
      </trkpt>
      <trkpt lat="45.607736" lon="7.487400">
        <ele>2846.354188</ele>
        <time>2022-11-14T23:41:05.734Z</time>
      </trkpt>
      <trkpt lat="45.607542" lon="7.486752">
        <ele>2836.654791</ele>
        <time>2022-11-14T23:42:45.312Z</time>
      </trkpt>
      <trkpt lat="45.607595" lon="7.486217">
        <ele>2830.631290</ele>
        <time>2022-11-14T23:43:59.459Z</time>
      </trkpt>
      <trkpt lat="45.607510" lon="7.485788">
        <ele>2825.660831</ele>
        <time>2022-11-14T23:44:56.043Z</time>
      </trkpt>
      <trkpt lat="45.607546" lon="7.485330">
        <ele>2820.523071</ele>
        <time>2022-11-14T23:45:52.712Z</time>
      </trkpt>
      <trkpt lat="45.607354" lon="7.484907">
        <ele>2814.902006</ele>
        <time>2022-11-14T23:46:53.114Z</time>
      </trkpt>
      <trkpt lat="45.607338" lon="7.484693">
        <ele>2812.502811</ele>
        <time>2022-11-14T23:47:18.206Z</time>
      </trkpt>
      <trkpt lat="45.607240" lon="7.484461">
        <ele>2810.129663</ele>
        <time>2022-11-14T23:47:48.911Z</time>
      </trkpt>
      <trkpt lat="45.607381" lon="7.484264">
        <ele>2809.118223</ele>
        <time>2022-11-14T23:48:20.323Z</time>
      </trkpt>
      <trkpt lat="45.607378" lon="7.483309">
        <ele>2805.690943</ele>
        <time>2022-11-14T23:50:01.599Z</time>
      </trkpt>
      <trkpt lat="45.607197" lon="7.482735">
        <ele>2803.431410</ele>
        <time>2022-11-14T23:51:05.570Z</time>
      </trkpt>
      <trkpt lat="45.607197" lon="7.482191">
        <ele>2801.479130</ele>
        <time>2022-11-14T23:51:58.734Z</time>
      </trkpt>
      <trkpt lat="45.607278" lon="7.481847">
        <ele>2800.672936</ele>
        <time>2022-11-14T23:52:33.491Z</time>
      </trkpt>
      <trkpt lat="45.607776" lon="7.481025">
        <ele>2798.644144</ele>
        <time>2022-11-14T23:54:18.753Z</time>
      </trkpt>
      <trkpt lat="45.607904" lon="7.480398">
        <ele>2797.425548</ele>
        <time>2022-11-14T23:55:22.682Z</time>
      </trkpt>
      <trkpt lat="45.608094" lon="7.480120">
        <ele>2796.700437</ele>
        <time>2022-11-14T23:56:03.005Z</time>
      </trkpt>
      <trkpt lat="45.608104" lon="7.479932">
        <ele>2795.939495</ele>
        <time>2022-11-14T23:56:23.502Z</time>
      </trkpt>
      <trkpt lat="45.608189" lon="7.479856">
        <ele>2793.985097</ele>
        <time>2022-11-14T23:56:38.519Z</time>
      </trkpt>
      <trkpt lat="45.608174" lon="7.478952">
        <ele>2781.653775</ele>
        <time>2022-11-14T23:58:28.395Z</time>
      </trkpt>
      <trkpt lat="45.608254" lon="7.478450">
        <ele>2774.632618</ele>
        <time>2022-11-14T23:59:40.093Z</time>
      </trkpt>
      <trkpt lat="45.608219" lon="7.478198">
        <ele>2771.129021</ele>
        <time>2022-11-15T00:00:18.026Z</time>
      </trkpt>
      <trkpt lat="45.608265" lon="7.477928">
        <ele>2767.339414</ele>
        <time>2022-11-15T00:01:05.526Z</time>
      </trkpt>
      <trkpt lat="45.608222" lon="7.477822">
        <ele>2765.668440</ele>
        <time>2022-11-15T00:01:23.852Z</time>
      </trkpt>
      <trkpt lat="45.608290" lon="7.477498">
        <ele>2760.904261</ele>
        <time>2022-11-15T00:02:24.474Z</time>
      </trkpt>
      <trkpt lat="45.608251" lon="7.477257">
        <ele>2755.806848</ele>
        <time>2022-11-15T00:03:06.733Z</time>
      </trkpt>
      <trkpt lat="45.608289" lon="7.477120">
        <ele>2752.769885</ele>
        <time>2022-11-15T00:03:33.480Z</time>
      </trkpt>
      <trkpt lat="45.608264" lon="7.476574">
        <ele>2741.494432</ele>
        <time>2022-11-15T00:05:11.147Z</time>
      </trkpt>
      <trkpt lat="45.608388" lon="7.475892">
        <ele>2726.973609</ele>
        <time>2022-11-15T00:07:15.830Z</time>
      </trkpt>
      <trkpt lat="45.608246" lon="7.475606">
        <ele>2719.746521</ele>
        <time>2022-11-15T00:08:17.130Z</time>
      </trkpt>
      <trkpt lat="45.608243" lon="7.475154">
        <ele>2710.431768</ele>
        <time>2022-11-15T00:09:31.430Z</time>
      </trkpt>
      <trkpt lat="45.608021" lon="7.474980">
        <ele>2704.096112</ele>
        <time>2022-11-15T00:10:30.631Z</time>
      </trkpt>
      <trkpt lat="45.607907" lon="7.474631">
        <ele>2697.810023</ele>
        <time>2022-11-15T00:11:32.580Z</time>
      </trkpt>
      <trkpt lat="45.607819" lon="7.474625">
        <ele>2695.754721</ele>
        <time>2022-11-15T00:11:51.387Z</time>
      </trkpt>
      <trkpt lat="45.607642" lon="7.474444">
        <ele>2690.677631</ele>
        <time>2022-11-15T00:12:39.733Z</time>
      </trkpt>
      <trkpt lat="45.607379" lon="7.474356">
        <ele>2684.376205</ele>
        <time>2022-11-15T00:13:34.367Z</time>
      </trkpt>
      <trkpt lat="45.607340" lon="7.474286">
        <ele>2682.915741</ele>
        <time>2022-11-15T00:13:47.983Z</time>
      </trkpt>
      <trkpt lat="45.607290" lon="7.474307">
        <ele>2681.699974</ele>
        <time>2022-11-15T00:13:58.630Z</time>
      </trkpt>
      <trkpt lat="45.607240" lon="7.474196">
        <ele>2679.545346</ele>
        <time>2022-11-15T00:14:17.856Z</time>
      </trkpt>
      <trkpt lat="45.607200" lon="7.474225">
        <ele>2678.499015</ele>
        <time>2022-11-15T00:14:26.651Z</time>
      </trkpt>
      <trkpt lat="45.607199" lon="7.474168">
        <ele>2677.568455</ele>
        <time>2022-11-15T00:14:34.576Z</time>
      </trkpt>
      <trkpt lat="45.607048" lon="7.474092">
        <ele>2673.833758</ele>
        <time>2022-11-15T00:15:08.802Z</time>
      </trkpt>
      <trkpt lat="45.607045" lon="7.474018">
        <ele>2672.624012</ele>
        <time>2022-11-15T00:15:19.000Z</time>
      </trkpt>
      <trkpt lat="45.606730" lon="7.474047">
        <ele>2665.570017</ele>
        <time>2022-11-15T00:16:21.996Z</time>
      </trkpt>
      <trkpt lat="45.606691" lon="7.473935">
        <ele>2664.079503</ele>
        <time>2022-11-15T00:16:38.726Z</time>
      </trkpt>
      <trkpt lat="45.606574" lon="7.473953">
        <ele>2662.075478</ele>
        <time>2022-11-15T00:17:00.730Z</time>
      </trkpt>
      <trkpt lat="45.606360" lon="7.473705">
        <ele>2657.383793</ele>
        <time>2022-11-15T00:17:54.453Z</time>
      </trkpt>
      <trkpt lat="45.606160" lon="7.473719">
        <ele>2653.973697</ele>
        <time>2022-11-15T00:18:32.467Z</time>
      </trkpt>
      <trkpt lat="45.606086" lon="7.473655">
        <ele>2652.500751</ele>
        <time>2022-11-15T00:18:47.877Z</time>
      </trkpt>
      <trkpt lat="45.605845" lon="7.473631">
        <ele>2648.386556</ele>
        <time>2022-11-15T00:19:32.565Z</time>
      </trkpt>
      <trkpt lat="45.605665" lon="7.473499">
        <ele>2644.941267</ele>
        <time>2022-11-15T00:20:08.818Z</time>
      </trkpt>
      <trkpt lat="45.605573" lon="7.473361">
        <ele>2642.670148</ele>
        <time>2022-11-15T00:20:32.412Z</time>
      </trkpt>
      <trkpt lat="45.605675" lon="7.473154">
        <ele>2639.653584</ele>
        <time>2022-11-15T00:21:03.092Z</time>
      </trkpt>
      <trkpt lat="45.605638" lon="7.472646">
        <ele>2634.819843</ele>
        <time>2022-11-15T00:22:03.318Z</time>
      </trkpt>
      <trkpt lat="45.605437" lon="7.472389">
        <ele>2632.829507</ele>
        <time>2022-11-15T00:22:47.449Z</time>
      </trkpt>
      <trkpt lat="45.605396" lon="7.472511">
        <ele>2632.130679</ele>
        <time>2022-11-15T00:22:58.635Z</time>
      </trkpt>
      <trkpt lat="45.605238" lon="7.472912">
        <ele>2629.754415</ele>
        <time>2022-11-15T00:23:36.240Z</time>
      </trkpt>
      <trkpt lat="45.605260" lon="7.473248">
        <ele>2628.011972</ele>
        <time>2022-11-15T00:24:02.574Z</time>
      </trkpt>
      <trkpt lat="45.605462" lon="7.473721">
        <ele>2625.150671</ele>
        <time>2022-11-15T00:24:44.602Z</time>
      </trkpt>
      <trkpt lat="45.605996" lon="7.474654">
        <ele>2620.662266</ele>
        <time>2022-11-15T00:26:15.799Z</time>
      </trkpt>
      <trkpt lat="45.606153" lon="7.475387">
        <ele>2618.625478</ele>
        <time>2022-11-15T00:27:11.879Z</time>
      </trkpt>
      <trkpt lat="45.606151" lon="7.475903">
        <ele>2617.254466</ele>
        <time>2022-11-15T00:27:50.524Z</time>
      </trkpt>
      <trkpt lat="45.605832" lon="7.475631">
        <ele>2615.843760</ele>
        <time>2022-11-15T00:28:31.100Z</time>
      </trkpt>
      <trkpt lat="45.604832" lon="7.474317">
        <ele>2608.626177</ele>
        <time>2022-11-15T00:31:04.352Z</time>
      </trkpt>
      <trkpt lat="45.604084" lon="7.473680">
        <ele>2605.272509</ele>
        <time>2022-11-15T00:32:38.937Z</time>
      </trkpt>
      <trkpt lat="45.603800" lon="7.473502">
        <ele>2604.670629</ele>
        <time>2022-11-15T00:33:11.634Z</time>
      </trkpt>
      <trkpt lat="45.603632" lon="7.473473">
        <ele>2604.342189</ele>
        <time>2022-11-15T00:33:29.212Z</time>
      </trkpt>
      <trkpt lat="45.603532" lon="7.473701">
        <ele>2603.976782</ele>
        <time>2022-11-15T00:33:48.675Z</time>
      </trkpt>
      <trkpt lat="45.603135" lon="7.474285">
        <ele>2602.871071</ele>
        <time>2022-11-15T00:34:46.657Z</time>
      </trkpt>
      <trkpt lat="45.603032" lon="7.474569">
        <ele>2602.521753</ele>
        <time>2022-11-15T00:35:09.199Z</time>
      </trkpt>
      <trkpt lat="45.602782" lon="7.474845">
        <ele>2602.475654</ele>
        <time>2022-11-15T00:35:41.343Z</time>
      </trkpt>
      <trkpt lat="45.602653" lon="7.474887">
        <ele>2602.456346</ele>
        <time>2022-11-15T00:35:55.148Z</time>
      </trkpt>
      <trkpt lat="45.602374" lon="7.475300">
        <ele>2602.397730</ele>
        <time>2022-11-15T00:36:37.372Z</time>
      </trkpt>
      <trkpt lat="45.601965" lon="7.475536">
        <ele>2602.333362</ele>
        <time>2022-11-15T00:37:24.351Z</time>
      </trkpt>
      <trkpt lat="45.601679" lon="7.475445">
        <ele>2602.290604</ele>
        <time>2022-11-15T00:37:56.072Z</time>
      </trkpt>
      <trkpt lat="45.601380" lon="7.475459">
        <ele>2600.806104</ele>
        <time>2022-11-15T00:38:27.601Z</time>
      </trkpt>
      <trkpt lat="45.601136" lon="7.476070">
        <ele>2595.354720</ele>
        <time>2022-11-15T00:39:29.945Z</time>
      </trkpt>
      <trkpt lat="45.601041" lon="7.477384">
        <ele>2585.118699</ele>
        <time>2022-11-15T00:41:23.089Z</time>
      </trkpt>
      <trkpt lat="45.600801" lon="7.476953">
        <ele>2580.135072</ele>
        <time>2022-11-15T00:42:28.065Z</time>
      </trkpt>
      <trkpt lat="45.600710" lon="7.476983">
        <ele>2578.606120</ele>
        <time>2022-11-15T00:42:45.342Z</time>
      </trkpt>
      <trkpt lat="45.600586" lon="7.477647">
        <ele>2570.733981</ele>
        <time>2022-11-15T00:44:06.264Z</time>
      </trkpt>
      <trkpt lat="45.600344" lon="7.477627">
        <ele>2566.765385</ele>
        <time>2022-11-15T00:44:53.021Z</time>
      </trkpt>
      <trkpt lat="45.600093" lon="7.476630">
        <ele>2554.628217</ele>
        <time>2022-11-15T00:47:02.367Z</time>
      </trkpt>
      <trkpt lat="45.600112" lon="7.476296">
        <ele>2551.716583</ele>
        <time>2022-11-15T00:47:34.304Z</time>
      </trkpt>
      <trkpt lat="45.600055" lon="7.476125">
        <ele>2550.500329</ele>
        <time>2022-11-15T00:47:52.496Z</time>
      </trkpt>
      <trkpt lat="45.600131" lon="7.475441">
        <ele>2546.053254</ele>
        <time>2022-11-15T00:49:02.635Z</time>
      </trkpt>
      <trkpt lat="45.600091" lon="7.475417">
        <ele>2545.655122</ele>
        <time>2022-11-15T00:49:09.142Z</time>
      </trkpt>
      <trkpt lat="45.599976" lon="7.475584">
        <ele>2544.150541</ele>
        <time>2022-11-15T00:49:33.315Z</time>
      </trkpt>
      <trkpt lat="45.599536" lon="7.477101">
        <ele>2533.787146</ele>
        <time>2022-11-15T00:52:22.364Z</time>
      </trkpt>
      <trkpt lat="45.599424" lon="7.478460">
        <ele>2525.572221</ele>
        <time>2022-11-15T00:54:41.939Z</time>
      </trkpt>
      <trkpt lat="45.599320" lon="7.478877">
        <ele>2522.914543</ele>
        <time>2022-11-15T00:55:27.430Z</time>
      </trkpt>
      <trkpt lat="45.599145" lon="7.479132">
        <ele>2520.852049</ele>
        <time>2022-11-15T00:56:04.381Z</time>
      </trkpt>
      <trkpt lat="45.599094" lon="7.479551">
        <ele>2519.404255</ele>
        <time>2022-11-15T00:56:48.533Z</time>
      </trkpt>
      <trkpt lat="45.598988" lon="7.479809">
        <ele>2518.385735</ele>
        <time>2022-11-15T00:57:18.889Z</time>
      </trkpt>
      <trkpt lat="45.598893" lon="7.480767">
        <ele>2515.091882</ele>
        <time>2022-11-15T00:58:51.798Z</time>
      </trkpt>
      <trkpt lat="45.598498" lon="7.482184">
        <ele>2512.883488</ele>
        <time>2022-11-15T01:01:09.828Z</time>
      </trkpt>
      <trkpt lat="45.598153" lon="7.483692">
        <ele>2514.463688</ele>
        <time>2022-11-15T01:03:37.645Z</time>
      </trkpt>
      <trkpt lat="45.598145" lon="7.483974">
        <ele>2514.744788</ele>
        <time>2022-11-15T01:04:06.099Z</time>
      </trkpt>
      <trkpt lat="45.598051" lon="7.484179">
        <ele>2515.825093</ele>
        <time>2022-11-15T01:04:31.146Z</time>
      </trkpt>
      <trkpt lat="45.597993" lon="7.484628">
        <ele>2518.004066</ele>
        <time>2022-11-15T01:05:19.089Z</time>
      </trkpt>
      <trkpt lat="45.597795" lon="7.485419">
        <ele>2522.013261</ele>
        <time>2022-11-15T01:06:49.709Z</time>
      </trkpt>
      <trkpt lat="45.597685" lon="7.486621">
        <ele>2527.784683</ele>
        <time>2022-11-15T01:09:06.380Z</time>
      </trkpt>
      <trkpt lat="45.597493" lon="7.487314">
        <ele>2531.277504</ele>
        <time>2022-11-15T01:10:30.579Z</time>
      </trkpt>
      <trkpt lat="45.597439" lon="7.487774">
        <ele>2533.463264</ele>
        <time>2022-11-15T01:11:22.186Z</time>
      </trkpt>
      <trkpt lat="45.597298" lon="7.488334">
        <ele>2536.252254</ele>
        <time>2022-11-15T01:12:27.178Z</time>
      </trkpt>
      <trkpt lat="45.597119" lon="7.488822">
        <ele>2538.834292</ele>
        <time>2022-11-15T01:13:21.792Z</time>
      </trkpt>
      <trkpt lat="45.596968" lon="7.489487">
        <ele>2539.053543</ele>
        <time>2022-11-15T01:14:29.329Z</time>
      </trkpt>
      <trkpt lat="45.596829" lon="7.489751">
        <ele>2539.038745</ele>
        <time>2022-11-15T01:14:59.115Z</time>
      </trkpt>
      <trkpt lat="45.596661" lon="7.489836">
        <ele>2539.027337</ele>
        <time>2022-11-15T01:15:22.815Z</time>
      </trkpt>
      <trkpt lat="45.596634" lon="7.489821">
        <ele>2539.025483</ele>
        <time>2022-11-15T01:15:26.562Z</time>
      </trkpt>
      <trkpt lat="45.596454" lon="7.489320">
        <ele>2539.000258</ele>
        <time>2022-11-15T01:16:17.812Z</time>
      </trkpt>
      <trkpt lat="45.596259" lon="7.488952">
        <ele>2538.979583</ele>
        <time>2022-11-15T01:17:00.099Z</time>
      </trkpt>
      <trkpt lat="45.596138" lon="7.488342">
        <ele>2538.967351</ele>
        <time>2022-11-15T01:17:59.834Z</time>
      </trkpt>
      <trkpt lat="45.595952" lon="7.488247">
        <ele>2538.967351</ele>
        <time>2022-11-15T01:18:26.089Z</time>
      </trkpt>
      <trkpt lat="45.595964" lon="7.488117">
        <ele>2538.967351</ele>
        <time>2022-11-15T01:18:38.565Z</time>
      </trkpt>
      <trkpt lat="45.596168" lon="7.488152">
        <ele>2538.967351</ele>
        <time>2022-11-15T01:19:01.374Z</time>
      </trkpt>
      <trkpt lat="45.596240" lon="7.487843">
        <ele>2538.967351</ele>
        <time>2022-11-15T01:19:26.239Z</time>
      </trkpt>
    </trkseg>
  </trk>
</gpx>